<?xml version="1.0" encoding="UTF-8" standalone="no" ?>
<gpx xmlns="http://www.topografix.com/GPX/1/1" xmlns:xsi="http://www.w3.org/2001/XMLSchema-instance" xsi:schemaLocation="http://www.topografix.com/GPX/1/1 http://www.topografix.com/GPX/1/1/gpx.xsd" version="1.1" creator="VisuGPX - https://www.visugpx.com">
  <metadata>
    <name>CAP 10km à Payrignac</name>
    <desc><![CDATA[Parcours de 10km autour de Payrignac avec 80m de dénivelé. Trés agréable en toute saison !]]></desc>
  </metadata>
  <trk>
    <name><![CDATA[CAP 10km à Payrignac_1]]></name>
    <trkseg>
      <trkpt lat="44.75699" lon="1.3513">
        <ele>125.33082580566</ele>
        <time>2011-12-25T08:51:37Z</time>
      </trkpt>
      <trkpt lat="44.75697" lon="1.35124">
        <ele>124.90338897705</ele>
        <time>2011-12-25T08:51:39Z</time>
      </trkpt>
      <trkpt lat="44.75682" lon="1.35108">
        <ele>123.76699066162</ele>
        <time>2011-12-25T08:51:45Z</time>
      </trkpt>
      <trkpt lat="44.75669" lon="1.35098">
        <ele>123.07434082031</ele>
        <time>2011-12-25T08:51:50Z</time>
      </trkpt>
      <trkpt lat="44.75661" lon="1.35092">
        <ele>122.75859832764</ele>
        <time>2011-12-25T08:51:53Z</time>
      </trkpt>
      <trkpt lat="44.75657" lon="1.35087">
        <ele>122.61775970459</ele>
        <time>2011-12-25T08:51:55Z</time>
      </trkpt>
      <trkpt lat="44.75651" lon="1.35083">
        <ele>122.57506561279</ele>
        <time>2011-12-25T08:51:57Z</time>
      </trkpt>
      <trkpt lat="44.75646" lon="1.35079">
        <ele>122.99676513672</ele>
        <time>2011-12-25T08:51:59Z</time>
      </trkpt>
      <trkpt lat="44.75644" lon="1.35077">
        <ele>123.26672363281</ele>
        <time>2011-12-25T08:52:00Z</time>
      </trkpt>
      <trkpt lat="44.75639" lon="1.35071">
        <ele>123.80916595459</ele>
        <time>2011-12-25T08:52:02Z</time>
      </trkpt>
      <trkpt lat="44.75643" lon="1.35057">
        <ele>124.55081939697</ele>
        <time>2011-12-25T08:52:06Z</time>
      </trkpt>
      <trkpt lat="44.75651" lon="1.35052">
        <ele>124.39806365967</ele>
        <time>2011-12-25T08:52:09Z</time>
      </trkpt>
      <trkpt lat="44.75669" lon="1.35044">
        <ele>123.84845733643</ele>
        <time>2011-12-25T08:52:16Z</time>
      </trkpt>
      <trkpt lat="44.75682" lon="1.35042">
        <ele>123.69602203369</ele>
        <time>2011-12-25T08:52:20Z</time>
      </trkpt>
      <trkpt lat="44.75694" lon="1.35036">
        <ele>123.69787597656</ele>
        <time>2011-12-25T08:52:25Z</time>
      </trkpt>
      <trkpt lat="44.75714" lon="1.35031">
        <ele>123.42333984375</ele>
        <time>2011-12-25T08:52:32Z</time>
      </trkpt>
      <trkpt lat="44.75724" lon="1.35028">
        <ele>123.27583312988</ele>
        <time>2011-12-25T08:52:35Z</time>
      </trkpt>
      <trkpt lat="44.75739" lon="1.35023">
        <ele>123.01886749268</ele>
        <time>2011-12-25T08:52:40Z</time>
      </trkpt>
      <trkpt lat="44.75751" lon="1.3502">
        <ele>122.76443481445</ele>
        <time>2011-12-25T08:52:44Z</time>
      </trkpt>
      <trkpt lat="44.75765" lon="1.35015">
        <ele>122.88202667236</ele>
        <time>2011-12-25T08:52:49Z</time>
      </trkpt>
      <trkpt lat="44.75779" lon="1.3501">
        <ele>122.9631729126</ele>
        <time>2011-12-25T08:52:54Z</time>
      </trkpt>
      <trkpt lat="44.75799" lon="1.35004">
        <ele>123.00752258301</ele>
        <time>2011-12-25T08:53:01Z</time>
      </trkpt>
      <trkpt lat="44.75807" lon="1.35001">
        <ele>123.00505065918</ele>
        <time>2011-12-25T08:53:04Z</time>
      </trkpt>
      <trkpt lat="44.75824" lon="1.34996">
        <ele>123.1904373169</ele>
        <time>2011-12-25T08:53:10Z</time>
      </trkpt>
      <trkpt lat="44.75838" lon="1.34991">
        <ele>123.2820892334</ele>
        <time>2011-12-25T08:53:15Z</time>
      </trkpt>
      <trkpt lat="44.75854" lon="1.34982">
        <ele>123.21863555908</ele>
        <time>2011-12-25T08:53:21Z</time>
      </trkpt>
      <trkpt lat="44.75865" lon="1.34976">
        <ele>123.08622741699</ele>
        <time>2011-12-25T08:53:25Z</time>
      </trkpt>
      <trkpt lat="44.75873" lon="1.3497">
        <ele>122.95397949219</ele>
        <time>2011-12-25T08:53:28Z</time>
      </trkpt>
      <trkpt lat="44.75885" lon="1.3496">
        <ele>122.7954788208</ele>
        <time>2011-12-25T08:53:33Z</time>
      </trkpt>
      <trkpt lat="44.75896" lon="1.34945">
        <ele>122.61796569824</ele>
        <time>2011-12-25T08:53:38Z</time>
      </trkpt>
      <trkpt lat="44.75909" lon="1.34928">
        <ele>122.28266906738</ele>
        <time>2011-12-25T08:53:44Z</time>
      </trkpt>
      <trkpt lat="44.75921" lon="1.34911">
        <ele>122.02047729492</ele>
        <time>2011-12-25T08:53:50Z</time>
      </trkpt>
      <trkpt lat="44.75935" lon="1.34895">
        <ele>121.97315979004</ele>
        <time>2011-12-25T08:53:56Z</time>
      </trkpt>
      <trkpt lat="44.75944" lon="1.34884">
        <ele>121.82660675049</ele>
        <time>2011-12-25T08:54:00Z</time>
      </trkpt>
      <trkpt lat="44.75951" lon="1.34868">
        <ele>121.82405090332</ele>
        <time>2011-12-25T08:54:05Z</time>
      </trkpt>
      <trkpt lat="44.75953" lon="1.34864">
        <ele>121.7838973999</ele>
        <time>2011-12-25T08:54:06Z</time>
      </trkpt>
      <trkpt lat="44.75963" lon="1.34838">
        <ele>121.57468414307</ele>
        <time>2011-12-25T08:54:13Z</time>
      </trkpt>
      <trkpt lat="44.75975" lon="1.34819">
        <ele>121.39967346191</ele>
        <time>2011-12-25T08:54:19Z</time>
      </trkpt>
      <trkpt lat="44.75985" lon="1.34805">
        <ele>121.13861846924</ele>
        <time>2011-12-25T08:54:24Z</time>
      </trkpt>
      <trkpt lat="44.75994" lon="1.34795">
        <ele>120.48881530762</ele>
        <time>2011-12-25T08:54:28Z</time>
      </trkpt>
      <trkpt lat="44.76009" lon="1.34783">
        <ele>120.26842498779</ele>
        <time>2011-12-25T08:54:34Z</time>
      </trkpt>
      <trkpt lat="44.76024" lon="1.34772">
        <ele>120.48715209961</ele>
        <time>2011-12-25T08:54:40Z</time>
      </trkpt>
      <trkpt lat="44.76039" lon="1.3476">
        <ele>120.51554107666</ele>
        <time>2011-12-25T08:54:46Z</time>
      </trkpt>
      <trkpt lat="44.76052" lon="1.34748">
        <ele>120.53198242188</ele>
        <time>2011-12-25T08:54:51Z</time>
      </trkpt>
      <trkpt lat="44.76067" lon="1.34736">
        <ele>121.54592895508</ele>
        <time>2011-12-25T08:54:57Z</time>
      </trkpt>
      <trkpt lat="44.76082" lon="1.34727">
        <ele>122.23600769043</ele>
        <time>2011-12-25T08:55:03Z</time>
      </trkpt>
      <trkpt lat="44.76097" lon="1.34716">
        <ele>122.77268981934</ele>
        <time>2011-12-25T08:55:09Z</time>
      </trkpt>
      <trkpt lat="44.7611" lon="1.34706">
        <ele>123.25334167481</ele>
        <time>2011-12-25T08:55:14Z</time>
      </trkpt>
      <trkpt lat="44.76122" lon="1.34698">
        <ele>123.52001953125</ele>
        <time>2011-12-25T08:55:19Z</time>
      </trkpt>
      <trkpt lat="44.76137" lon="1.34691">
        <ele>123.42678070068</ele>
        <time>2011-12-25T08:55:25Z</time>
      </trkpt>
      <trkpt lat="44.76148" lon="1.34688">
        <ele>123.25653076172</ele>
        <time>2011-12-25T08:55:29Z</time>
      </trkpt>
      <trkpt lat="44.76154" lon="1.34686">
        <ele>123.14106750488</ele>
        <time>2011-12-25T08:55:31Z</time>
      </trkpt>
      <trkpt lat="44.76164" lon="1.34679">
        <ele>123.21431732178</ele>
        <time>2011-12-25T08:55:35Z</time>
      </trkpt>
      <trkpt lat="44.76168" lon="1.34675">
        <ele>123.33480072022</ele>
        <time>2011-12-25T08:55:37Z</time>
      </trkpt>
      <trkpt lat="44.7618" lon="1.34663">
        <ele>123.48194885254</ele>
        <time>2011-12-25T08:55:42Z</time>
      </trkpt>
      <trkpt lat="44.76182" lon="1.3466">
        <ele>123.57939147949</ele>
        <time>2011-12-25T08:55:43Z</time>
      </trkpt>
      <trkpt lat="44.76196" lon="1.3465">
        <ele>123.47786712647</ele>
        <time>2011-12-25T08:55:49Z</time>
      </trkpt>
      <trkpt lat="44.76208" lon="1.3464">
        <ele>123.41654205322</ele>
        <time>2011-12-25T08:55:54Z</time>
      </trkpt>
      <trkpt lat="44.7621" lon="1.34638">
        <ele>123.4465713501</ele>
        <time>2011-12-25T08:55:55Z</time>
      </trkpt>
      <trkpt lat="44.76228" lon="1.34621">
        <ele>123.35942077637</ele>
        <time>2011-12-25T08:56:02Z</time>
      </trkpt>
      <trkpt lat="44.76239" lon="1.34607">
        <ele>123.45030212402</ele>
        <time>2011-12-25T08:56:07Z</time>
      </trkpt>
      <trkpt lat="44.76249" lon="1.34593">
        <ele>123.49813079834</ele>
        <time>2011-12-25T08:56:12Z</time>
      </trkpt>
      <trkpt lat="44.76258" lon="1.34577">
        <ele>123.42999267578</ele>
        <time>2011-12-25T08:56:17Z</time>
      </trkpt>
      <trkpt lat="44.76266" lon="1.3456">
        <ele>123.35167694092</ele>
        <time>2011-12-25T08:56:22Z</time>
      </trkpt>
      <trkpt lat="44.76273" lon="1.34543">
        <ele>123.50227355957</ele>
        <time>2011-12-25T08:56:27Z</time>
      </trkpt>
      <trkpt lat="44.7628" lon="1.34523">
        <ele>123.80857086182</ele>
        <time>2011-12-25T08:56:32Z</time>
      </trkpt>
      <trkpt lat="44.76286" lon="1.34505">
        <ele>124.1370010376</ele>
        <time>2011-12-25T08:56:37Z</time>
      </trkpt>
      <trkpt lat="44.76292" lon="1.34494">
        <ele>124.2470779419</ele>
        <time>2011-12-25T08:56:41Z</time>
      </trkpt>
      <trkpt lat="44.76299" lon="1.34484">
        <ele>124.23780822754</ele>
        <time>2011-12-25T08:56:45Z</time>
      </trkpt>
      <trkpt lat="44.76309" lon="1.34468">
        <ele>124.09124755859</ele>
        <time>2011-12-25T08:56:50Z</time>
      </trkpt>
      <trkpt lat="44.76318" lon="1.34455">
        <ele>123.72583007812</ele>
        <time>2011-12-25T08:56:54Z</time>
      </trkpt>
      <trkpt lat="44.76329" lon="1.34431">
        <ele>123.13021087647</ele>
        <time>2011-12-25T08:57:01Z</time>
      </trkpt>
      <trkpt lat="44.76337" lon="1.34419">
        <ele>122.63996887207</ele>
        <time>2011-12-25T08:57:05Z</time>
      </trkpt>
      <trkpt lat="44.76347" lon="1.34404">
        <ele>122.00573730469</ele>
        <time>2011-12-25T08:57:10Z</time>
      </trkpt>
      <trkpt lat="44.76355" lon="1.34396">
        <ele>121.50553131103</ele>
        <time>2011-12-25T08:57:14Z</time>
      </trkpt>
      <trkpt lat="44.76369" lon="1.34375">
        <ele>121.06304931641</ele>
        <time>2011-12-25T08:57:21Z</time>
      </trkpt>
      <trkpt lat="44.76381" lon="1.3436">
        <ele>120.96991729736</ele>
        <time>2011-12-25T08:57:26Z</time>
      </trkpt>
      <trkpt lat="44.7639" lon="1.34347">
        <ele>121.06702423096</ele>
        <time>2011-12-25T08:57:31Z</time>
      </trkpt>
      <trkpt lat="44.76397" lon="1.34329">
        <ele>121.5464553833</ele>
        <time>2011-12-25T08:57:36Z</time>
      </trkpt>
      <trkpt lat="44.76403" lon="1.34304">
        <ele>121.97366333008</ele>
        <time>2011-12-25T08:57:42Z</time>
      </trkpt>
      <trkpt lat="44.76409" lon="1.34274">
        <ele>122.86800384522</ele>
        <time>2011-12-25T08:57:49Z</time>
      </trkpt>
      <trkpt lat="44.76416" lon="1.3425">
        <ele>123.96704864502</ele>
        <time>2011-12-25T08:57:55Z</time>
      </trkpt>
      <trkpt lat="44.76431" lon="1.34232">
        <ele>123.13632965088</ele>
        <time>2011-12-25T08:58:02Z</time>
      </trkpt>
      <trkpt lat="44.76444" lon="1.34224">
        <ele>122.27005767822</ele>
        <time>2011-12-25T08:58:07Z</time>
      </trkpt>
      <trkpt lat="44.76456" lon="1.34227">
        <ele>120.9522857666</ele>
        <time>2011-12-25T08:58:11Z</time>
      </trkpt>
      <trkpt lat="44.7647" lon="1.3423">
        <ele>119.23306274414</ele>
        <time>2011-12-25T08:58:17Z</time>
      </trkpt>
      <trkpt lat="44.76485" lon="1.34222">
        <ele>118.50467681885</ele>
        <time>2011-12-25T08:58:22Z</time>
      </trkpt>
      <trkpt lat="44.76494" lon="1.3421">
        <ele>118.84210205078</ele>
        <time>2011-12-25T08:58:26Z</time>
      </trkpt>
      <trkpt lat="44.76498" lon="1.34201">
        <ele>119.45532226562</ele>
        <time>2011-12-25T08:58:28Z</time>
      </trkpt>
      <trkpt lat="44.76516" lon="1.3418">
        <ele>119.23284912109</ele>
        <time>2011-12-25T08:58:35Z</time>
      </trkpt>
      <trkpt lat="44.76527" lon="1.34164">
        <ele>118.55963134766</ele>
        <time>2011-12-25T08:58:40Z</time>
      </trkpt>
      <trkpt lat="44.7654" lon="1.34149">
        <ele>117.06740570068</ele>
        <time>2011-12-25T08:58:46Z</time>
      </trkpt>
      <trkpt lat="44.76542" lon="1.34147">
        <ele>116.90370941162</ele>
        <time>2011-12-25T08:58:49Z</time>
      </trkpt>
      <trkpt lat="44.76543" lon="1.34146">
        <ele>116.7236404419</ele>
        <time>2011-12-25T08:58:54Z</time>
      </trkpt>
      <trkpt lat="44.76544" lon="1.34146">
        <ele>116.57801055908</ele>
        <time>2011-12-25T08:58:56Z</time>
      </trkpt>
      <trkpt lat="44.76544" lon="1.34145">
        <ele>116.61170196533</ele>
        <time>2011-12-25T08:59:02Z</time>
      </trkpt>
      <trkpt lat="44.76549" lon="1.34141">
        <ele>116.07053375244</ele>
        <time>2011-12-25T08:59:05Z</time>
      </trkpt>
      <trkpt lat="44.76561" lon="1.34127">
        <ele>114.81303405762</ele>
        <time>2011-12-25T08:59:10Z</time>
      </trkpt>
      <trkpt lat="44.76574" lon="1.34113">
        <ele>113.60287475586</ele>
        <time>2011-12-25T08:59:15Z</time>
      </trkpt>
      <trkpt lat="44.76589" lon="1.34097">
        <ele>112.85974884033</ele>
        <time>2011-12-25T08:59:21Z</time>
      </trkpt>
      <trkpt lat="44.76603" lon="1.34078">
        <ele>112.83763122559</ele>
        <time>2011-12-25T08:59:27Z</time>
      </trkpt>
      <trkpt lat="44.76614" lon="1.34057">
        <ele>112.82141113281</ele>
        <time>2011-12-25T08:59:33Z</time>
      </trkpt>
      <trkpt lat="44.7662" lon="1.34036">
        <ele>112.92304992676</ele>
        <time>2011-12-25T08:59:38Z</time>
      </trkpt>
      <trkpt lat="44.76628" lon="1.34017">
        <ele>112.6568069458</ele>
        <time>2011-12-25T08:59:43Z</time>
      </trkpt>
      <trkpt lat="44.76636" lon="1.33994">
        <ele>112.32570648193</ele>
        <time>2011-12-25T08:59:49Z</time>
      </trkpt>
      <trkpt lat="44.76642" lon="1.33974">
        <ele>112.56101989746</ele>
        <time>2011-12-25T08:59:54Z</time>
      </trkpt>
      <trkpt lat="44.76647" lon="1.33955">
        <ele>112.92189788818</ele>
        <time>2011-12-25T08:59:59Z</time>
      </trkpt>
      <trkpt lat="44.76656" lon="1.33931">
        <ele>112.8556137085</ele>
        <time>2011-12-25T09:00:05Z</time>
      </trkpt>
      <trkpt lat="44.76662" lon="1.3391">
        <ele>112.8811416626</ele>
        <time>2011-12-25T09:00:10Z</time>
      </trkpt>
      <trkpt lat="44.76671" lon="1.3389">
        <ele>112.81317901611</ele>
        <time>2011-12-25T09:00:15Z</time>
      </trkpt>
      <trkpt lat="44.76677" lon="1.33879">
        <ele>112.94682312012</ele>
        <time>2011-12-25T09:00:18Z</time>
      </trkpt>
      <trkpt lat="44.76689" lon="1.33854">
        <ele>113.11013793945</ele>
        <time>2011-12-25T09:00:25Z</time>
      </trkpt>
      <trkpt lat="44.76698" lon="1.33842">
        <ele>112.92722320557</ele>
        <time>2011-12-25T09:00:29Z</time>
      </trkpt>
      <trkpt lat="44.76708" lon="1.33824">
        <ele>112.70532226562</ele>
        <time>2011-12-25T09:00:34Z</time>
      </trkpt>
      <trkpt lat="44.76717" lon="1.33807">
        <ele>112.38967895508</ele>
        <time>2011-12-25T09:00:39Z</time>
      </trkpt>
      <trkpt lat="44.76727" lon="1.33789">
        <ele>112.08362579346</ele>
        <time>2011-12-25T09:00:44Z</time>
      </trkpt>
      <trkpt lat="44.76733" lon="1.33767">
        <ele>112.00274658203</ele>
        <time>2011-12-25T09:00:50Z</time>
      </trkpt>
      <trkpt lat="44.76739" lon="1.33745">
        <ele>111.99800872803</ele>
        <time>2011-12-25T09:00:56Z</time>
      </trkpt>
      <trkpt lat="44.76744" lon="1.33726">
        <ele>112.35359954834</ele>
        <time>2011-12-25T09:01:01Z</time>
      </trkpt>
      <trkpt lat="44.76748" lon="1.3371">
        <ele>112.57433319092</ele>
        <time>2011-12-25T09:01:05Z</time>
      </trkpt>
      <trkpt lat="44.76757" lon="1.33687">
        <ele>112.91250610352</ele>
        <time>2011-12-25T09:01:11Z</time>
      </trkpt>
      <trkpt lat="44.76764" lon="1.33663">
        <ele>113.28089904785</ele>
        <time>2011-12-25T09:01:17Z</time>
      </trkpt>
      <trkpt lat="44.76768" lon="1.33645">
        <ele>113.70983886719</ele>
        <time>2011-12-25T09:01:22Z</time>
      </trkpt>
      <trkpt lat="44.76769" lon="1.33629">
        <ele>114.21984863281</ele>
        <time>2011-12-25T09:01:26Z</time>
      </trkpt>
      <trkpt lat="44.7677" lon="1.3362">
        <ele>114.54390716553</ele>
        <time>2011-12-25T09:01:28Z</time>
      </trkpt>
      <trkpt lat="44.76777" lon="1.3361">
        <ele>114.27716827393</ele>
        <time>2011-12-25T09:01:32Z</time>
      </trkpt>
      <trkpt lat="44.76781" lon="1.33614">
        <ele>113.73189544678</ele>
        <time>2011-12-25T09:01:34Z</time>
      </trkpt>
      <trkpt lat="44.76795" lon="1.33629">
        <ele>112.10802459717</ele>
        <time>2011-12-25T09:01:41Z</time>
      </trkpt>
      <trkpt lat="44.76808" lon="1.33634">
        <ele>111.01491546631</ele>
        <time>2011-12-25T09:01:46Z</time>
      </trkpt>
      <trkpt lat="44.7682" lon="1.33636">
        <ele>110.00705718994</ele>
        <time>2011-12-25T09:01:51Z</time>
      </trkpt>
      <trkpt lat="44.76836" lon="1.33635">
        <ele>109.69525909424</ele>
        <time>2011-12-25T09:01:57Z</time>
      </trkpt>
      <trkpt lat="44.7685" lon="1.33635">
        <ele>113.35831451416</ele>
        <time>2011-12-25T09:02:02Z</time>
      </trkpt>
      <trkpt lat="44.76867" lon="1.3364">
        <ele>117.83583068848</ele>
        <time>2011-12-25T09:02:09Z</time>
      </trkpt>
      <trkpt lat="44.76875" lon="1.33649">
        <ele>119.97172546387</ele>
        <time>2011-12-25T09:02:13Z</time>
      </trkpt>
      <trkpt lat="44.76889" lon="1.33664">
        <ele>123.58686065674</ele>
        <time>2011-12-25T09:02:19Z</time>
      </trkpt>
      <trkpt lat="44.7689" lon="1.33668">
        <ele>123.98220825195</ele>
        <time>2011-12-25T09:02:20Z</time>
      </trkpt>
      <trkpt lat="44.76893" lon="1.33683">
        <ele>124.20765686035</ele>
        <time>2011-12-25T09:02:24Z</time>
      </trkpt>
      <trkpt lat="44.76893" lon="1.33708">
        <ele>123.52829742432</ele>
        <time>2011-12-25T09:02:30Z</time>
      </trkpt>
      <trkpt lat="44.7689" lon="1.3373">
        <ele>122.16222381592</ele>
        <time>2011-12-25T09:02:35Z</time>
      </trkpt>
      <trkpt lat="44.76889" lon="1.33751">
        <ele>121.29830932617</ele>
        <time>2011-12-25T09:02:40Z</time>
      </trkpt>
      <trkpt lat="44.76888" lon="1.33771">
        <ele>119.98377227783</ele>
        <time>2011-12-25T09:02:45Z</time>
      </trkpt>
      <trkpt lat="44.76884" lon="1.33793">
        <ele>118.2361831665</ele>
        <time>2011-12-25T09:02:50Z</time>
      </trkpt>
      <trkpt lat="44.7688" lon="1.33814">
        <ele>116.47067260742</ele>
        <time>2011-12-25T09:02:56Z</time>
      </trkpt>
      <trkpt lat="44.76873" lon="1.33836">
        <ele>114.92775726318</ele>
        <time>2011-12-25T09:03:02Z</time>
      </trkpt>
      <trkpt lat="44.76867" lon="1.33852">
        <ele>115.12532806397</ele>
        <time>2011-12-25T09:03:06Z</time>
      </trkpt>
      <trkpt lat="44.76856" lon="1.33869">
        <ele>114.48249816894</ele>
        <time>2011-12-25T09:03:12Z</time>
      </trkpt>
      <trkpt lat="44.76846" lon="1.3388">
        <ele>113.53544616699</ele>
        <time>2011-12-25T09:03:17Z</time>
      </trkpt>
      <trkpt lat="44.76837" lon="1.33895">
        <ele>112.77196502685</ele>
        <time>2011-12-25T09:03:22Z</time>
      </trkpt>
      <trkpt lat="44.76833" lon="1.33913">
        <ele>112.8464050293</ele>
        <time>2011-12-25T09:03:26Z</time>
      </trkpt>
      <trkpt lat="44.76831" lon="1.33936">
        <ele>115.59782409668</ele>
        <time>2011-12-25T09:03:31Z</time>
      </trkpt>
      <trkpt lat="44.76839" lon="1.33938">
        <ele>117.15270233154</ele>
        <time>2011-12-25T09:03:35Z</time>
      </trkpt>
      <trkpt lat="44.76842" lon="1.33935">
        <ele>117.37236785889</ele>
        <time>2011-12-25T09:03:36Z</time>
      </trkpt>
      <trkpt lat="44.76856" lon="1.33926">
        <ele>118.32155609131</ele>
        <time>2011-12-25T09:03:41Z</time>
      </trkpt>
      <trkpt lat="44.76875" lon="1.33916">
        <ele>119.90941619873</ele>
        <time>2011-12-25T09:03:47Z</time>
      </trkpt>
      <trkpt lat="44.76888" lon="1.33906">
        <ele>121.37682342529</ele>
        <time>2011-12-25T09:03:52Z</time>
      </trkpt>
      <trkpt lat="44.76901" lon="1.33897">
        <ele>122.87884521484</ele>
        <time>2011-12-25T09:03:57Z</time>
      </trkpt>
      <trkpt lat="44.7692" lon="1.33886">
        <ele>124.24310302734</ele>
        <time>2011-12-25T09:04:04Z</time>
      </trkpt>
      <trkpt lat="44.76933" lon="1.3388">
        <ele>123.2186126709</ele>
        <time>2011-12-25T09:04:09Z</time>
      </trkpt>
      <trkpt lat="44.76942" lon="1.33879">
        <ele>122.82332611084</ele>
        <time>2011-12-25T09:04:12Z</time>
      </trkpt>
      <trkpt lat="44.7695" lon="1.33886">
        <ele>122.77317810059</ele>
        <time>2011-12-25T09:04:16Z</time>
      </trkpt>
      <trkpt lat="44.76964" lon="1.33899">
        <ele>122.48154449463</ele>
        <time>2011-12-25T09:04:23Z</time>
      </trkpt>
      <trkpt lat="44.7697" lon="1.3391">
        <ele>122.41497802734</ele>
        <time>2011-12-25T09:04:27Z</time>
      </trkpt>
      <trkpt lat="44.76974" lon="1.33936">
        <ele>124.62120819092</ele>
        <time>2011-12-25T09:04:34Z</time>
      </trkpt>
      <trkpt lat="44.76977" lon="1.33959">
        <ele>127.19647216797</ele>
        <time>2011-12-25T09:04:40Z</time>
      </trkpt>
      <trkpt lat="44.76979" lon="1.33979">
        <ele>129.38516235352</ele>
        <time>2011-12-25T09:04:45Z</time>
      </trkpt>
      <trkpt lat="44.76987" lon="1.34003">
        <ele>130.63470458984</ele>
        <time>2011-12-25T09:04:51Z</time>
      </trkpt>
      <trkpt lat="44.76991" lon="1.34023">
        <ele>131.00933837891</ele>
        <time>2011-12-25T09:04:56Z</time>
      </trkpt>
      <trkpt lat="44.76993" lon="1.34041">
        <ele>131.62142944336</ele>
        <time>2011-12-25T09:05:01Z</time>
      </trkpt>
      <trkpt lat="44.77" lon="1.3406">
        <ele>130.94522094727</ele>
        <time>2011-12-25T09:05:06Z</time>
      </trkpt>
      <trkpt lat="44.77006" lon="1.34077">
        <ele>131.78482055664</ele>
        <time>2011-12-25T09:05:11Z</time>
      </trkpt>
      <trkpt lat="44.77016" lon="1.34099">
        <ele>132.30265808106</ele>
        <time>2011-12-25T09:05:17Z</time>
      </trkpt>
      <trkpt lat="44.77028" lon="1.34122">
        <ele>132.48692321777</ele>
        <time>2011-12-25T09:05:23Z</time>
      </trkpt>
      <trkpt lat="44.77029" lon="1.34126">
        <ele>132.50267028809</ele>
        <time>2011-12-25T09:05:24Z</time>
      </trkpt>
      <trkpt lat="44.77039" lon="1.34139">
        <ele>132.50909423828</ele>
        <time>2011-12-25T09:05:28Z</time>
      </trkpt>
      <trkpt lat="44.77054" lon="1.34158">
        <ele>132.38461303711</ele>
        <time>2011-12-25T09:05:34Z</time>
      </trkpt>
      <trkpt lat="44.77059" lon="1.34172">
        <ele>132.11672973633</ele>
        <time>2011-12-25T09:05:38Z</time>
      </trkpt>
      <trkpt lat="44.77061" lon="1.34192">
        <ele>131.49768066406</ele>
        <time>2011-12-25T09:05:43Z</time>
      </trkpt>
      <trkpt lat="44.77064" lon="1.34213">
        <ele>130.86042785644</ele>
        <time>2011-12-25T09:05:49Z</time>
      </trkpt>
      <trkpt lat="44.77071" lon="1.34228">
        <ele>130.46955871582</ele>
        <time>2011-12-25T09:05:53Z</time>
      </trkpt>
      <trkpt lat="44.7708" lon="1.34246">
        <ele>130.07182312012</ele>
        <time>2011-12-25T09:05:59Z</time>
      </trkpt>
      <trkpt lat="44.77089" lon="1.34259">
        <ele>130.71476745606</ele>
        <time>2011-12-25T09:06:04Z</time>
      </trkpt>
      <trkpt lat="44.77098" lon="1.34272">
        <ele>131.60980224609</ele>
        <time>2011-12-25T09:06:09Z</time>
      </trkpt>
      <trkpt lat="44.77109" lon="1.34286">
        <ele>132.22142028809</ele>
        <time>2011-12-25T09:06:14Z</time>
      </trkpt>
      <trkpt lat="44.77119" lon="1.34302">
        <ele>132.14131164551</ele>
        <time>2011-12-25T09:06:19Z</time>
      </trkpt>
      <trkpt lat="44.77127" lon="1.3432">
        <ele>131.32008361816</ele>
        <time>2011-12-25T09:06:24Z</time>
      </trkpt>
      <trkpt lat="44.77132" lon="1.3434">
        <ele>130.98052978516</ele>
        <time>2011-12-25T09:06:29Z</time>
      </trkpt>
      <trkpt lat="44.77129" lon="1.34359">
        <ele>132.56750488281</ele>
        <time>2011-12-25T09:06:34Z</time>
      </trkpt>
      <trkpt lat="44.77122" lon="1.34377">
        <ele>133.85624694824</ele>
        <time>2011-12-25T09:06:40Z</time>
      </trkpt>
      <trkpt lat="44.77119" lon="1.34396">
        <ele>135.18911743164</ele>
        <time>2011-12-25T09:06:45Z</time>
      </trkpt>
      <trkpt lat="44.77119" lon="1.34416">
        <ele>136.71112060547</ele>
        <time>2011-12-25T09:06:50Z</time>
      </trkpt>
      <trkpt lat="44.7712" lon="1.34437">
        <ele>139.16746520996</ele>
        <time>2011-12-25T09:06:55Z</time>
      </trkpt>
      <trkpt lat="44.77119" lon="1.34451">
        <ele>140.81935119629</ele>
        <time>2011-12-25T09:06:59Z</time>
      </trkpt>
      <trkpt lat="44.77119" lon="1.34455">
        <ele>141.33306884766</ele>
        <time>2011-12-25T09:07:00Z</time>
      </trkpt>
      <trkpt lat="44.77116" lon="1.34479">
        <ele>143.86126708984</ele>
        <time>2011-12-25T09:07:06Z</time>
      </trkpt>
      <trkpt lat="44.77115" lon="1.34487">
        <ele>144.65565490723</ele>
        <time>2011-12-25T09:07:08Z</time>
      </trkpt>
      <trkpt lat="44.77112" lon="1.34512">
        <ele>145.89851379394</ele>
        <time>2011-12-25T09:07:14Z</time>
      </trkpt>
      <trkpt lat="44.77114" lon="1.34531">
        <ele>146.35124206543</ele>
        <time>2011-12-25T09:07:19Z</time>
      </trkpt>
      <trkpt lat="44.77115" lon="1.34548">
        <ele>146.7020111084</ele>
        <time>2011-12-25T09:07:23Z</time>
      </trkpt>
      <trkpt lat="44.7712" lon="1.34563">
        <ele>147.37762451172</ele>
        <time>2011-12-25T09:07:27Z</time>
      </trkpt>
      <trkpt lat="44.77126" lon="1.34581">
        <ele>148.07905578613</ele>
        <time>2011-12-25T09:07:32Z</time>
      </trkpt>
      <trkpt lat="44.77133" lon="1.34595">
        <ele>147.79888916016</ele>
        <time>2011-12-25T09:07:36Z</time>
      </trkpt>
      <trkpt lat="44.7714" lon="1.34613">
        <ele>146.80200195312</ele>
        <time>2011-12-25T09:07:41Z</time>
      </trkpt>
      <trkpt lat="44.77148" lon="1.34628">
        <ele>145.68077087402</ele>
        <time>2011-12-25T09:07:46Z</time>
      </trkpt>
      <trkpt lat="44.77159" lon="1.34649">
        <ele>143.34115600586</ele>
        <time>2011-12-25T09:07:53Z</time>
      </trkpt>
      <trkpt lat="44.77166" lon="1.34667">
        <ele>140.99157714844</ele>
        <time>2011-12-25T09:07:58Z</time>
      </trkpt>
      <trkpt lat="44.77172" lon="1.34687">
        <ele>139.99981689453</ele>
        <time>2011-12-25T09:08:04Z</time>
      </trkpt>
      <trkpt lat="44.7718" lon="1.34701">
        <ele>139.46575927734</ele>
        <time>2011-12-25T09:08:08Z</time>
      </trkpt>
      <trkpt lat="44.77188" lon="1.34721">
        <ele>137.89024353027</ele>
        <time>2011-12-25T09:08:14Z</time>
      </trkpt>
      <trkpt lat="44.77192" lon="1.34742">
        <ele>135.63255310059</ele>
        <time>2011-12-25T09:08:19Z</time>
      </trkpt>
      <trkpt lat="44.77192" lon="1.34767">
        <ele>135.48370361328</ele>
        <time>2011-12-25T09:08:25Z</time>
      </trkpt>
      <trkpt lat="44.77197" lon="1.34786">
        <ele>136.31480407715</ele>
        <time>2011-12-25T09:08:30Z</time>
      </trkpt>
      <trkpt lat="44.77206" lon="1.34796">
        <ele>136.4481048584</ele>
        <time>2011-12-25T09:08:34Z</time>
      </trkpt>
      <trkpt lat="44.77217" lon="1.34803">
        <ele>136.19142150879</ele>
        <time>2011-12-25T09:08:39Z</time>
      </trkpt>
      <trkpt lat="44.77233" lon="1.34817">
        <ele>135.4766998291</ele>
        <time>2011-12-25T09:08:46Z</time>
      </trkpt>
      <trkpt lat="44.77243" lon="1.3483">
        <ele>134.59759521484</ele>
        <time>2011-12-25T09:08:52Z</time>
      </trkpt>
      <trkpt lat="44.77253" lon="1.34844">
        <ele>134.81307983398</ele>
        <time>2011-12-25T09:08:57Z</time>
      </trkpt>
      <trkpt lat="44.77264" lon="1.34861">
        <ele>135.74960327148</ele>
        <time>2011-12-25T09:09:03Z</time>
      </trkpt>
      <trkpt lat="44.77277" lon="1.34877">
        <ele>136.29988098144</ele>
        <time>2011-12-25T09:09:09Z</time>
      </trkpt>
      <trkpt lat="44.77295" lon="1.34891">
        <ele>136.26251220703</ele>
        <time>2011-12-25T09:09:16Z</time>
      </trkpt>
      <trkpt lat="44.77305" lon="1.34895">
        <ele>135.91793823242</ele>
        <time>2011-12-25T09:09:21Z</time>
      </trkpt>
      <trkpt lat="44.7732" lon="1.34902">
        <ele>135.29385375977</ele>
        <time>2011-12-25T09:09:27Z</time>
      </trkpt>
      <trkpt lat="44.77334" lon="1.34911">
        <ele>134.83770751953</ele>
        <time>2011-12-25T09:09:33Z</time>
      </trkpt>
      <trkpt lat="44.77345" lon="1.34926">
        <ele>135.62152099609</ele>
        <time>2011-12-25T09:09:39Z</time>
      </trkpt>
      <trkpt lat="44.77354" lon="1.34936">
        <ele>135.98152160644</ele>
        <time>2011-12-25T09:09:43Z</time>
      </trkpt>
      <trkpt lat="44.77368" lon="1.3494">
        <ele>136.46875</ele>
        <time>2011-12-25T09:09:48Z</time>
      </trkpt>
      <trkpt lat="44.77388" lon="1.34937">
        <ele>137.22058105469</ele>
        <time>2011-12-25T09:09:54Z</time>
      </trkpt>
      <trkpt lat="44.77405" lon="1.34929">
        <ele>138.06205749512</ele>
        <time>2011-12-25T09:10:00Z</time>
      </trkpt>
      <trkpt lat="44.77422" lon="1.34926">
        <ele>139.79066467285</ele>
        <time>2011-12-25T09:10:06Z</time>
      </trkpt>
      <trkpt lat="44.77431" lon="1.34932">
        <ele>141.56768798828</ele>
        <time>2011-12-25T09:10:10Z</time>
      </trkpt>
      <trkpt lat="44.77441" lon="1.34946">
        <ele>142.84065246582</ele>
        <time>2011-12-25T09:10:15Z</time>
      </trkpt>
      <trkpt lat="44.77449" lon="1.34962">
        <ele>143.66400146484</ele>
        <time>2011-12-25T09:10:20Z</time>
      </trkpt>
      <trkpt lat="44.77454" lon="1.34979">
        <ele>143.75840759277</ele>
        <time>2011-12-25T09:10:25Z</time>
      </trkpt>
      <trkpt lat="44.77456" lon="1.34997">
        <ele>143.15655517578</ele>
        <time>2011-12-25T09:10:30Z</time>
      </trkpt>
      <trkpt lat="44.77456" lon="1.35017">
        <ele>142.92587280273</ele>
        <time>2011-12-25T09:10:35Z</time>
      </trkpt>
      <trkpt lat="44.77455" lon="1.35039">
        <ele>142.45809936523</ele>
        <time>2011-12-25T09:10:40Z</time>
      </trkpt>
      <trkpt lat="44.77454" lon="1.35062">
        <ele>142.04124450684</ele>
        <time>2011-12-25T09:10:46Z</time>
      </trkpt>
      <trkpt lat="44.77453" lon="1.35086">
        <ele>141.52597045898</ele>
        <time>2011-12-25T09:10:52Z</time>
      </trkpt>
      <trkpt lat="44.77455" lon="1.35094">
        <ele>141.64083862305</ele>
        <time>2011-12-25T09:10:54Z</time>
      </trkpt>
      <trkpt lat="44.77458" lon="1.35121">
        <ele>141.52239990234</ele>
        <time>2011-12-25T09:11:01Z</time>
      </trkpt>
      <trkpt lat="44.77461" lon="1.35144">
        <ele>141.41056823731</ele>
        <time>2011-12-25T09:11:07Z</time>
      </trkpt>
      <trkpt lat="44.77464" lon="1.35159">
        <ele>141.32139587402</ele>
        <time>2011-12-25T09:11:11Z</time>
      </trkpt>
      <trkpt lat="44.77466" lon="1.35182">
        <ele>142.2844543457</ele>
        <time>2011-12-25T09:11:17Z</time>
      </trkpt>
      <trkpt lat="44.77467" lon="1.35205">
        <ele>143.87480163574</ele>
        <time>2011-12-25T09:11:23Z</time>
      </trkpt>
      <trkpt lat="44.77468" lon="1.35221">
        <ele>144.93908691406</ele>
        <time>2011-12-25T09:11:27Z</time>
      </trkpt>
      <trkpt lat="44.77468" lon="1.35224">
        <ele>145.21798706055</ele>
        <time>2011-12-25T09:11:28Z</time>
      </trkpt>
      <trkpt lat="44.77462" lon="1.35235">
        <ele>145.0993347168</ele>
        <time>2011-12-25T09:11:32Z</time>
      </trkpt>
      <trkpt lat="44.77449" lon="1.35248">
        <ele>144.10960388184</ele>
        <time>2011-12-25T09:11:38Z</time>
      </trkpt>
      <trkpt lat="44.77439" lon="1.35263">
        <ele>143.78181457519</ele>
        <time>2011-12-25T09:11:43Z</time>
      </trkpt>
      <trkpt lat="44.77434" lon="1.3528">
        <ele>144.11326599121</ele>
        <time>2011-12-25T09:11:48Z</time>
      </trkpt>
      <trkpt lat="44.77431" lon="1.35299">
        <ele>144.84768676758</ele>
        <time>2011-12-25T09:11:53Z</time>
      </trkpt>
      <trkpt lat="44.77427" lon="1.35317">
        <ele>145.3702545166</ele>
        <time>2011-12-25T09:11:58Z</time>
      </trkpt>
      <trkpt lat="44.77424" lon="1.35334">
        <ele>146.02113342285</ele>
        <time>2011-12-25T09:12:03Z</time>
      </trkpt>
      <trkpt lat="44.77419" lon="1.35356">
        <ele>146.87248229981</ele>
        <time>2011-12-25T09:12:09Z</time>
      </trkpt>
      <trkpt lat="44.77411" lon="1.35375">
        <ele>147.60601806641</ele>
        <time>2011-12-25T09:12:15Z</time>
      </trkpt>
      <trkpt lat="44.77405" lon="1.35392">
        <ele>148.31367492676</ele>
        <time>2011-12-25T09:12:20Z</time>
      </trkpt>
      <trkpt lat="44.77398" lon="1.35409">
        <ele>148.72280883789</ele>
        <time>2011-12-25T09:12:25Z</time>
      </trkpt>
      <trkpt lat="44.77391" lon="1.35426">
        <ele>149.65602111816</ele>
        <time>2011-12-25T09:12:30Z</time>
      </trkpt>
      <trkpt lat="44.77384" lon="1.35441">
        <ele>150.49494934082</ele>
        <time>2011-12-25T09:12:35Z</time>
      </trkpt>
      <trkpt lat="44.77375" lon="1.35456">
        <ele>150.97462463379</ele>
        <time>2011-12-25T09:12:40Z</time>
      </trkpt>
      <trkpt lat="44.77365" lon="1.3547">
        <ele>151.12550354004</ele>
        <time>2011-12-25T09:12:45Z</time>
      </trkpt>
      <trkpt lat="44.77356" lon="1.35481">
        <ele>150.8934173584</ele>
        <time>2011-12-25T09:12:49Z</time>
      </trkpt>
      <trkpt lat="44.77348" lon="1.35497">
        <ele>151.08067321777</ele>
        <time>2011-12-25T09:12:54Z</time>
      </trkpt>
      <trkpt lat="44.77342" lon="1.35511">
        <ele>150.95178222656</ele>
        <time>2011-12-25T09:12:58Z</time>
      </trkpt>
      <trkpt lat="44.77335" lon="1.35528">
        <ele>150.58436584473</ele>
        <time>2011-12-25T09:13:03Z</time>
      </trkpt>
      <trkpt lat="44.7733" lon="1.35544">
        <ele>150.96987915039</ele>
        <time>2011-12-25T09:13:07Z</time>
      </trkpt>
      <trkpt lat="44.77326" lon="1.35566">
        <ele>151.71147155762</ele>
        <time>2011-12-25T09:13:12Z</time>
      </trkpt>
      <trkpt lat="44.7732" lon="1.35588">
        <ele>152.28245544434</ele>
        <time>2011-12-25T09:13:17Z</time>
      </trkpt>
      <trkpt lat="44.77319" lon="1.35609">
        <ele>153.17419433594</ele>
        <time>2011-12-25T09:13:22Z</time>
      </trkpt>
      <trkpt lat="44.77323" lon="1.35626">
        <ele>154.36004638672</ele>
        <time>2011-12-25T09:13:26Z</time>
      </trkpt>
      <trkpt lat="44.77327" lon="1.35646">
        <ele>155.89912414551</ele>
        <time>2011-12-25T09:13:31Z</time>
      </trkpt>
      <trkpt lat="44.77327" lon="1.35663">
        <ele>156.75248718262</ele>
        <time>2011-12-25T09:13:35Z</time>
      </trkpt>
      <trkpt lat="44.77325" lon="1.35681">
        <ele>157.755859375</ele>
        <time>2011-12-25T09:13:40Z</time>
      </trkpt>
      <trkpt lat="44.77324" lon="1.35689">
        <ele>158.13827514648</ele>
        <time>2011-12-25T09:13:42Z</time>
      </trkpt>
      <trkpt lat="44.7732" lon="1.35709">
        <ele>158.91609191894</ele>
        <time>2011-12-25T09:13:47Z</time>
      </trkpt>
      <trkpt lat="44.77317" lon="1.35727">
        <ele>159.74131774902</ele>
        <time>2011-12-25T09:13:52Z</time>
      </trkpt>
      <trkpt lat="44.77316" lon="1.35743">
        <ele>160.61326599121</ele>
        <time>2011-12-25T09:13:57Z</time>
      </trkpt>
      <trkpt lat="44.77315" lon="1.35762">
        <ele>161.73277282715</ele>
        <time>2011-12-25T09:14:02Z</time>
      </trkpt>
      <trkpt lat="44.77314" lon="1.35785">
        <ele>163.27665710449</ele>
        <time>2011-12-25T09:14:09Z</time>
      </trkpt>
      <trkpt lat="44.77311" lon="1.35807">
        <ele>164.55003356934</ele>
        <time>2011-12-25T09:14:14Z</time>
      </trkpt>
      <trkpt lat="44.77309" lon="1.35816">
        <ele>164.98501586914</ele>
        <time>2011-12-25T09:14:16Z</time>
      </trkpt>
      <trkpt lat="44.77305" lon="1.35841">
        <ele>166.31983947754</ele>
        <time>2011-12-25T09:14:23Z</time>
      </trkpt>
      <trkpt lat="44.77305" lon="1.35848">
        <ele>166.60810852051</ele>
        <time>2011-12-25T09:14:25Z</time>
      </trkpt>
      <trkpt lat="44.773" lon="1.35867">
        <ele>167.13090515137</ele>
        <time>2011-12-25T09:14:31Z</time>
      </trkpt>
      <trkpt lat="44.77296" lon="1.35884">
        <ele>167.57884216309</ele>
        <time>2011-12-25T09:14:36Z</time>
      </trkpt>
      <trkpt lat="44.7729" lon="1.359">
        <ele>168.01005554199</ele>
        <time>2011-12-25T09:14:40Z</time>
      </trkpt>
      <trkpt lat="44.77282" lon="1.3592">
        <ele>168.38110351562</ele>
        <time>2011-12-25T09:14:46Z</time>
      </trkpt>
      <trkpt lat="44.77276" lon="1.35937">
        <ele>168.3768157959</ele>
        <time>2011-12-25T09:14:50Z</time>
      </trkpt>
      <trkpt lat="44.77269" lon="1.35956">
        <ele>168.33190917969</ele>
        <time>2011-12-25T09:14:55Z</time>
      </trkpt>
      <trkpt lat="44.77261" lon="1.35975">
        <ele>168.22604370117</ele>
        <time>2011-12-25T09:15:01Z</time>
      </trkpt>
      <trkpt lat="44.77254" lon="1.35992">
        <ele>168.13162231445</ele>
        <time>2011-12-25T09:15:06Z</time>
      </trkpt>
      <trkpt lat="44.77246" lon="1.36006">
        <ele>167.67211914062</ele>
        <time>2011-12-25T09:15:11Z</time>
      </trkpt>
      <trkpt lat="44.77237" lon="1.36027">
        <ele>167.19880676269</ele>
        <time>2011-12-25T09:15:17Z</time>
      </trkpt>
      <trkpt lat="44.77231" lon="1.36044">
        <ele>167.05996704102</ele>
        <time>2011-12-25T09:15:22Z</time>
      </trkpt>
      <trkpt lat="44.77225" lon="1.36062">
        <ele>167.02796936035</ele>
        <time>2011-12-25T09:15:27Z</time>
      </trkpt>
      <trkpt lat="44.77217" lon="1.36084">
        <ele>167.03814697266</ele>
        <time>2011-12-25T09:15:33Z</time>
      </trkpt>
      <trkpt lat="44.77211" lon="1.36102">
        <ele>167.0657043457</ele>
        <time>2011-12-25T09:15:38Z</time>
      </trkpt>
      <trkpt lat="44.77208" lon="1.36122">
        <ele>167.40901184082</ele>
        <time>2011-12-25T09:15:43Z</time>
      </trkpt>
      <trkpt lat="44.7721" lon="1.36141">
        <ele>167.86578369141</ele>
        <time>2011-12-25T09:15:48Z</time>
      </trkpt>
      <trkpt lat="44.77211" lon="1.36144">
        <ele>167.92489624023</ele>
        <time>2011-12-25T09:15:49Z</time>
      </trkpt>
      <trkpt lat="44.77224" lon="1.36159">
        <ele>167.89059448242</ele>
        <time>2011-12-25T09:15:56Z</time>
      </trkpt>
      <trkpt lat="44.7724" lon="1.36169">
        <ele>167.3670501709</ele>
        <time>2011-12-25T09:16:02Z</time>
      </trkpt>
      <trkpt lat="44.77253" lon="1.36182">
        <ele>166.59046936035</ele>
        <time>2011-12-25T09:16:08Z</time>
      </trkpt>
      <trkpt lat="44.77266" lon="1.36195">
        <ele>165.35661315918</ele>
        <time>2011-12-25T09:16:14Z</time>
      </trkpt>
      <trkpt lat="44.77277" lon="1.36208">
        <ele>164.42451477051</ele>
        <time>2011-12-25T09:16:19Z</time>
      </trkpt>
      <trkpt lat="44.7729" lon="1.36227">
        <ele>163.45474243164</ele>
        <time>2011-12-25T09:16:26Z</time>
      </trkpt>
      <trkpt lat="44.77294" lon="1.36237">
        <ele>163.28178405762</ele>
        <time>2011-12-25T09:16:29Z</time>
      </trkpt>
      <trkpt lat="44.77285" lon="1.36252">
        <ele>163.87071228027</ele>
        <time>2011-12-25T09:16:35Z</time>
      </trkpt>
      <trkpt lat="44.77277" lon="1.3627">
        <ele>163.92707824707</ele>
        <time>2011-12-25T09:16:41Z</time>
      </trkpt>
      <trkpt lat="44.7727" lon="1.36281">
        <ele>164.03979492188</ele>
        <time>2011-12-25T09:16:45Z</time>
      </trkpt>
      <trkpt lat="44.77264" lon="1.36298">
        <ele>164.03121948242</ele>
        <time>2011-12-25T09:16:50Z</time>
      </trkpt>
      <trkpt lat="44.77256" lon="1.36318">
        <ele>163.98001098633</ele>
        <time>2011-12-25T09:16:56Z</time>
      </trkpt>
      <trkpt lat="44.77249" lon="1.36333">
        <ele>164.16311645508</ele>
        <time>2011-12-25T09:17:01Z</time>
      </trkpt>
      <trkpt lat="44.77241" lon="1.36348">
        <ele>164.76736450195</ele>
        <time>2011-12-25T09:17:06Z</time>
      </trkpt>
      <trkpt lat="44.77233" lon="1.36363">
        <ele>165.16143798828</ele>
        <time>2011-12-25T09:17:11Z</time>
      </trkpt>
      <trkpt lat="44.77224" lon="1.36381">
        <ele>165.37438964844</ele>
        <time>2011-12-25T09:17:17Z</time>
      </trkpt>
      <trkpt lat="44.77216" lon="1.36395">
        <ele>165.50898742676</ele>
        <time>2011-12-25T09:17:22Z</time>
      </trkpt>
      <trkpt lat="44.77205" lon="1.36411">
        <ele>165.60746765137</ele>
        <time>2011-12-25T09:17:28Z</time>
      </trkpt>
      <trkpt lat="44.77192" lon="1.36425">
        <ele>166.14668273926</ele>
        <time>2011-12-25T09:17:34Z</time>
      </trkpt>
      <trkpt lat="44.77177" lon="1.36443">
        <ele>167.03297424316</ele>
        <time>2011-12-25T09:17:41Z</time>
      </trkpt>
      <trkpt lat="44.77165" lon="1.36456">
        <ele>167.63893127441</ele>
        <time>2011-12-25T09:17:47Z</time>
      </trkpt>
      <trkpt lat="44.77149" lon="1.36468">
        <ele>168.23577880859</ele>
        <time>2011-12-25T09:17:54Z</time>
      </trkpt>
      <trkpt lat="44.77138" lon="1.36476">
        <ele>168.41676330566</ele>
        <time>2011-12-25T09:17:59Z</time>
      </trkpt>
      <trkpt lat="44.7712" lon="1.36488">
        <ele>168.3486328125</ele>
        <time>2011-12-25T09:18:06Z</time>
      </trkpt>
      <trkpt lat="44.77103" lon="1.36497">
        <ele>168.0198059082</ele>
        <time>2011-12-25T09:18:13Z</time>
      </trkpt>
      <trkpt lat="44.77092" lon="1.36499">
        <ele>167.95590209961</ele>
        <time>2011-12-25T09:18:18Z</time>
      </trkpt>
      <trkpt lat="44.77081" lon="1.36505">
        <ele>168.46975708008</ele>
        <time>2011-12-25T09:18:22Z</time>
      </trkpt>
      <trkpt lat="44.77065" lon="1.36514">
        <ele>170.89697265625</ele>
        <time>2011-12-25T09:18:29Z</time>
      </trkpt>
      <trkpt lat="44.77055" lon="1.36521">
        <ele>172.02449035644</ele>
        <time>2011-12-25T09:18:33Z</time>
      </trkpt>
      <trkpt lat="44.77037" lon="1.36538">
        <ele>173.27816772461</ele>
        <time>2011-12-25T09:18:41Z</time>
      </trkpt>
      <trkpt lat="44.77025" lon="1.36555">
        <ele>173.11891174316</ele>
        <time>2011-12-25T09:18:46Z</time>
      </trkpt>
      <trkpt lat="44.77013" lon="1.36574">
        <ele>171.86271667481</ele>
        <time>2011-12-25T09:18:52Z</time>
      </trkpt>
      <trkpt lat="44.77005" lon="1.36591">
        <ele>171.20816040039</ele>
        <time>2011-12-25T09:18:57Z</time>
      </trkpt>
      <trkpt lat="44.76998" lon="1.36608">
        <ele>171.91609191894</ele>
        <time>2011-12-25T09:19:02Z</time>
      </trkpt>
      <trkpt lat="44.76991" lon="1.36624">
        <ele>173.24697875977</ele>
        <time>2011-12-25T09:19:07Z</time>
      </trkpt>
      <trkpt lat="44.76985" lon="1.36639">
        <ele>174.15760803223</ele>
        <time>2011-12-25T09:19:12Z</time>
      </trkpt>
      <trkpt lat="44.76975" lon="1.36661">
        <ele>174.88130187988</ele>
        <time>2011-12-25T09:19:19Z</time>
      </trkpt>
      <trkpt lat="44.76968" lon="1.36677">
        <ele>175.1887512207</ele>
        <time>2011-12-25T09:19:24Z</time>
      </trkpt>
      <trkpt lat="44.76959" lon="1.36693">
        <ele>175.33013916016</ele>
        <time>2011-12-25T09:19:29Z</time>
      </trkpt>
      <trkpt lat="44.76947" lon="1.36713">
        <ele>175.07658386231</ele>
        <time>2011-12-25T09:19:36Z</time>
      </trkpt>
      <trkpt lat="44.76939" lon="1.36727">
        <ele>174.61956787109</ele>
        <time>2011-12-25T09:19:41Z</time>
      </trkpt>
      <trkpt lat="44.76928" lon="1.36745">
        <ele>173.53189086914</ele>
        <time>2011-12-25T09:19:47Z</time>
      </trkpt>
      <trkpt lat="44.76916" lon="1.36764">
        <ele>173.06840515137</ele>
        <time>2011-12-25T09:19:53Z</time>
      </trkpt>
      <trkpt lat="44.76904" lon="1.3678">
        <ele>173.77102661133</ele>
        <time>2011-12-25T09:19:59Z</time>
      </trkpt>
      <trkpt lat="44.76893" lon="1.36784">
        <ele>174.41690063477</ele>
        <time>2011-12-25T09:20:03Z</time>
      </trkpt>
      <trkpt lat="44.7688" lon="1.36784">
        <ele>175.17944335938</ele>
        <time>2011-12-25T09:20:08Z</time>
      </trkpt>
      <trkpt lat="44.76866" lon="1.36784">
        <ele>176.02140808106</ele>
        <time>2011-12-25T09:20:13Z</time>
      </trkpt>
      <trkpt lat="44.76849" lon="1.36784">
        <ele>177.02401733398</ele>
        <time>2011-12-25T09:20:19Z</time>
      </trkpt>
      <trkpt lat="44.76837" lon="1.36783">
        <ele>177.80369567871</ele>
        <time>2011-12-25T09:20:24Z</time>
      </trkpt>
      <trkpt lat="44.76824" lon="1.36779">
        <ele>178.21685791016</ele>
        <time>2011-12-25T09:20:29Z</time>
      </trkpt>
      <trkpt lat="44.76809" lon="1.36775">
        <ele>178.24711608887</ele>
        <time>2011-12-25T09:20:35Z</time>
      </trkpt>
      <trkpt lat="44.76794" lon="1.36774">
        <ele>178.15702819824</ele>
        <time>2011-12-25T09:20:40Z</time>
      </trkpt>
      <trkpt lat="44.76773" lon="1.36772">
        <ele>178.0119934082</ele>
        <time>2011-12-25T09:20:47Z</time>
      </trkpt>
      <trkpt lat="44.76756" lon="1.36773">
        <ele>177.78910827637</ele>
        <time>2011-12-25T09:20:53Z</time>
      </trkpt>
      <trkpt lat="44.76744" lon="1.36775">
        <ele>177.89329528809</ele>
        <time>2011-12-25T09:20:57Z</time>
      </trkpt>
      <trkpt lat="44.76731" lon="1.36775">
        <ele>178.33020019531</ele>
        <time>2011-12-25T09:21:02Z</time>
      </trkpt>
      <trkpt lat="44.76712" lon="1.36777">
        <ele>178.99229431152</ele>
        <time>2011-12-25T09:21:09Z</time>
      </trkpt>
      <trkpt lat="44.76701" lon="1.36774">
        <ele>179.24139404297</ele>
        <time>2011-12-25T09:21:14Z</time>
      </trkpt>
      <trkpt lat="44.76699" lon="1.36773">
        <ele>179.25631713867</ele>
        <time>2011-12-25T09:21:15Z</time>
      </trkpt>
      <trkpt lat="44.76684" lon="1.36774">
        <ele>179.76449584961</ele>
        <time>2011-12-25T09:21:21Z</time>
      </trkpt>
      <trkpt lat="44.76672" lon="1.36775">
        <ele>180.2608795166</ele>
        <time>2011-12-25T09:21:26Z</time>
      </trkpt>
      <trkpt lat="44.76658" lon="1.36776">
        <ele>180.21839904785</ele>
        <time>2011-12-25T09:21:31Z</time>
      </trkpt>
      <trkpt lat="44.76642" lon="1.36778">
        <ele>179.87229919434</ele>
        <time>2011-12-25T09:21:37Z</time>
      </trkpt>
      <trkpt lat="44.76628" lon="1.3678">
        <ele>179.64349365234</ele>
        <time>2011-12-25T09:21:42Z</time>
      </trkpt>
      <trkpt lat="44.76616" lon="1.36782">
        <ele>179.4073638916</ele>
        <time>2011-12-25T09:21:46Z</time>
      </trkpt>
      <trkpt lat="44.76598" lon="1.36785">
        <ele>179.02862548828</ele>
        <time>2011-12-25T09:21:52Z</time>
      </trkpt>
      <trkpt lat="44.76581" lon="1.36787">
        <ele>178.5811920166</ele>
        <time>2011-12-25T09:21:58Z</time>
      </trkpt>
      <trkpt lat="44.76561" lon="1.36787">
        <ele>177.65214538574</ele>
        <time>2011-12-25T09:22:05Z</time>
      </trkpt>
      <trkpt lat="44.76541" lon="1.36788">
        <ele>176.84889221191</ele>
        <time>2011-12-25T09:22:11Z</time>
      </trkpt>
      <trkpt lat="44.76523" lon="1.36788">
        <ele>176.02900695801</ele>
        <time>2011-12-25T09:22:17Z</time>
      </trkpt>
      <trkpt lat="44.76506" lon="1.36787">
        <ele>175.25099182129</ele>
        <time>2011-12-25T09:22:23Z</time>
      </trkpt>
      <trkpt lat="44.7649" lon="1.36788">
        <ele>175.33416748047</ele>
        <time>2011-12-25T09:22:28Z</time>
      </trkpt>
      <trkpt lat="44.76474" lon="1.36783">
        <ele>175.88665771484</ele>
        <time>2011-12-25T09:22:34Z</time>
      </trkpt>
      <trkpt lat="44.76457" lon="1.36777">
        <ele>176.36895751953</ele>
        <time>2011-12-25T09:22:40Z</time>
      </trkpt>
      <trkpt lat="44.76445" lon="1.36774">
        <ele>176.71615600586</ele>
        <time>2011-12-25T09:22:44Z</time>
      </trkpt>
      <trkpt lat="44.76424" lon="1.36768">
        <ele>177.22676086426</ele>
        <time>2011-12-25T09:22:51Z</time>
      </trkpt>
      <trkpt lat="44.76406" lon="1.36762">
        <ele>177.93028259277</ele>
        <time>2011-12-25T09:22:57Z</time>
      </trkpt>
      <trkpt lat="44.7639" lon="1.36756">
        <ele>178.77172851562</ele>
        <time>2011-12-25T09:23:03Z</time>
      </trkpt>
      <trkpt lat="44.76379" lon="1.36751">
        <ele>179.28811645508</ele>
        <time>2011-12-25T09:23:08Z</time>
      </trkpt>
      <trkpt lat="44.76361" lon="1.36744">
        <ele>180.29020690918</ele>
        <time>2011-12-25T09:23:15Z</time>
      </trkpt>
      <trkpt lat="44.76349" lon="1.3674">
        <ele>180.90000915527</ele>
        <time>2011-12-25T09:23:20Z</time>
      </trkpt>
      <trkpt lat="44.76337" lon="1.36736">
        <ele>181.4695892334</ele>
        <time>2011-12-25T09:23:25Z</time>
      </trkpt>
      <trkpt lat="44.76326" lon="1.36734">
        <ele>182.01486206055</ele>
        <time>2011-12-25T09:23:30Z</time>
      </trkpt>
      <trkpt lat="44.76311" lon="1.36729">
        <ele>182.58090209961</ele>
        <time>2011-12-25T09:23:36Z</time>
      </trkpt>
      <trkpt lat="44.76294" lon="1.36722">
        <ele>182.85557556152</ele>
        <time>2011-12-25T09:23:43Z</time>
      </trkpt>
      <trkpt lat="44.76283" lon="1.36717">
        <ele>182.94874572754</ele>
        <time>2011-12-25T09:23:48Z</time>
      </trkpt>
      <trkpt lat="44.76271" lon="1.36712">
        <ele>182.8830871582</ele>
        <time>2011-12-25T09:23:53Z</time>
      </trkpt>
      <trkpt lat="44.76255" lon="1.36709">
        <ele>182.98918151856</ele>
        <time>2011-12-25T09:23:59Z</time>
      </trkpt>
      <trkpt lat="44.76244" lon="1.36706">
        <ele>182.64236450195</ele>
        <time>2011-12-25T09:24:03Z</time>
      </trkpt>
      <trkpt lat="44.76229" lon="1.367">
        <ele>181.63803100586</ele>
        <time>2011-12-25T09:24:09Z</time>
      </trkpt>
      <trkpt lat="44.76213" lon="1.36695">
        <ele>180.77993774414</ele>
        <time>2011-12-25T09:24:14Z</time>
      </trkpt>
      <trkpt lat="44.76201" lon="1.3669">
        <ele>180.08937072754</ele>
        <time>2011-12-25T09:24:19Z</time>
      </trkpt>
      <trkpt lat="44.76188" lon="1.36686">
        <ele>179.39526367188</ele>
        <time>2011-12-25T09:24:24Z</time>
      </trkpt>
      <trkpt lat="44.76169" lon="1.36679">
        <ele>178.39987182617</ele>
        <time>2011-12-25T09:24:30Z</time>
      </trkpt>
      <trkpt lat="44.76154" lon="1.3666">
        <ele>176.99125671387</ele>
        <time>2011-12-25T09:24:37Z</time>
      </trkpt>
      <trkpt lat="44.76138" lon="1.36642">
        <ele>176.8465423584</ele>
        <time>2011-12-25T09:24:44Z</time>
      </trkpt>
      <trkpt lat="44.76122" lon="1.36631">
        <ele>176.9190826416</ele>
        <time>2011-12-25T09:24:50Z</time>
      </trkpt>
      <trkpt lat="44.76109" lon="1.36621">
        <ele>176.974609375</ele>
        <time>2011-12-25T09:24:55Z</time>
      </trkpt>
      <trkpt lat="44.76098" lon="1.366">
        <ele>176.88070678711</ele>
        <time>2011-12-25T09:25:02Z</time>
      </trkpt>
      <trkpt lat="44.7609" lon="1.36584">
        <ele>176.85549926758</ele>
        <time>2011-12-25T09:25:07Z</time>
      </trkpt>
      <trkpt lat="44.76086" lon="1.36567">
        <ele>176.73731994629</ele>
        <time>2011-12-25T09:25:11Z</time>
      </trkpt>
      <trkpt lat="44.76087" lon="1.36545">
        <ele>176.44906616211</ele>
        <time>2011-12-25T09:25:16Z</time>
      </trkpt>
      <trkpt lat="44.76085" lon="1.36525">
        <ele>176.27125549316</ele>
        <time>2011-12-25T09:25:21Z</time>
      </trkpt>
      <trkpt lat="44.7608" lon="1.36507">
        <ele>176.17655944824</ele>
        <time>2011-12-25T09:25:26Z</time>
      </trkpt>
      <trkpt lat="44.76075" lon="1.3649">
        <ele>176.31884765625</ele>
        <time>2011-12-25T09:25:30Z</time>
      </trkpt>
      <trkpt lat="44.7607" lon="1.3647">
        <ele>176.73100280762</ele>
        <time>2011-12-25T09:25:35Z</time>
      </trkpt>
      <trkpt lat="44.76066" lon="1.36449">
        <ele>177.15826416016</ele>
        <time>2011-12-25T09:25:40Z</time>
      </trkpt>
      <trkpt lat="44.76061" lon="1.36424">
        <ele>177.69134521484</ele>
        <time>2011-12-25T09:25:46Z</time>
      </trkpt>
      <trkpt lat="44.76051" lon="1.36402">
        <ele>178.3232421875</ele>
        <time>2011-12-25T09:25:52Z</time>
      </trkpt>
      <trkpt lat="44.7604" lon="1.36391">
        <ele>178.88887023926</ele>
        <time>2011-12-25T09:25:57Z</time>
      </trkpt>
      <trkpt lat="44.76029" lon="1.36391">
        <ele>179.27224731445</ele>
        <time>2011-12-25T09:26:01Z</time>
      </trkpt>
      <trkpt lat="44.76019" lon="1.36396">
        <ele>179.56736755371</ele>
        <time>2011-12-25T09:26:05Z</time>
      </trkpt>
      <trkpt lat="44.76014" lon="1.36399">
        <ele>179.72814941406</ele>
        <time>2011-12-25T09:26:07Z</time>
      </trkpt>
      <trkpt lat="44.75998" lon="1.364">
        <ele>180.21429443359</ele>
        <time>2011-12-25T09:26:13Z</time>
      </trkpt>
      <trkpt lat="44.75993" lon="1.36399">
        <ele>180.26260375977</ele>
        <time>2011-12-25T09:26:15Z</time>
      </trkpt>
      <trkpt lat="44.75976" lon="1.36399">
        <ele>180.37463378906</ele>
        <time>2011-12-25T09:26:22Z</time>
      </trkpt>
      <trkpt lat="44.75964" lon="1.36399">
        <ele>180.46365356445</ele>
        <time>2011-12-25T09:26:27Z</time>
      </trkpt>
      <trkpt lat="44.7595" lon="1.364">
        <ele>180.5577545166</ele>
        <time>2011-12-25T09:26:32Z</time>
      </trkpt>
      <trkpt lat="44.7594" lon="1.36399">
        <ele>180.62223815918</ele>
        <time>2011-12-25T09:26:36Z</time>
      </trkpt>
      <trkpt lat="44.75923" lon="1.36401">
        <ele>180.76928710938</ele>
        <time>2011-12-25T09:26:42Z</time>
      </trkpt>
      <trkpt lat="44.7592" lon="1.36402">
        <ele>180.79357910156</ele>
        <time>2011-12-25T09:26:43Z</time>
      </trkpt>
      <trkpt lat="44.75907" lon="1.36408">
        <ele>180.80381774902</ele>
        <time>2011-12-25T09:26:48Z</time>
      </trkpt>
      <trkpt lat="44.7589" lon="1.3641">
        <ele>180.65267944336</ele>
        <time>2011-12-25T09:26:54Z</time>
      </trkpt>
      <trkpt lat="44.75875" lon="1.36406">
        <ele>180.50428771973</ele>
        <time>2011-12-25T09:27:00Z</time>
      </trkpt>
      <trkpt lat="44.75863" lon="1.36396">
        <ele>180.42687988281</ele>
        <time>2011-12-25T09:27:05Z</time>
      </trkpt>
      <trkpt lat="44.75851" lon="1.36377">
        <ele>180.48335266113</ele>
        <time>2011-12-25T09:27:11Z</time>
      </trkpt>
      <trkpt lat="44.7584" lon="1.36357">
        <ele>180.67784118652</ele>
        <time>2011-12-25T09:27:17Z</time>
      </trkpt>
      <trkpt lat="44.75828" lon="1.36339">
        <ele>180.93733215332</ele>
        <time>2011-12-25T09:27:23Z</time>
      </trkpt>
      <trkpt lat="44.75814" lon="1.36311">
        <ele>181</ele>
        <time>2011-12-25T09:27:31Z</time>
      </trkpt>
      <trkpt lat="44.75806" lon="1.36296">
        <ele>181</ele>
        <time>2011-12-25T09:27:36Z</time>
      </trkpt>
      <trkpt lat="44.75791" lon="1.36292">
        <ele>181</ele>
        <time>2011-12-25T09:27:42Z</time>
      </trkpt>
      <trkpt lat="44.75781" lon="1.363">
        <ele>181</ele>
        <time>2011-12-25T09:27:46Z</time>
      </trkpt>
      <trkpt lat="44.75771" lon="1.36308">
        <ele>181</ele>
        <time>2011-12-25T09:27:50Z</time>
      </trkpt>
      <trkpt lat="44.75759" lon="1.36316">
        <ele>181</ele>
        <time>2011-12-25T09:27:55Z</time>
      </trkpt>
      <trkpt lat="44.75746" lon="1.36325">
        <ele>181.07879638672</ele>
        <time>2011-12-25T09:28:00Z</time>
      </trkpt>
      <trkpt lat="44.75729" lon="1.36338">
        <ele>181.47674560547</ele>
        <time>2011-12-25T09:28:07Z</time>
      </trkpt>
      <trkpt lat="44.75714" lon="1.36349">
        <ele>181.8243560791</ele>
        <time>2011-12-25T09:28:13Z</time>
      </trkpt>
      <trkpt lat="44.75702" lon="1.36359">
        <ele>182.18949890137</ele>
        <time>2011-12-25T09:28:18Z</time>
      </trkpt>
      <trkpt lat="44.75688" lon="1.36369">
        <ele>182.70210266113</ele>
        <time>2011-12-25T09:28:24Z</time>
      </trkpt>
      <trkpt lat="44.75672" lon="1.36375">
        <ele>183.31205749512</ele>
        <time>2011-12-25T09:28:30Z</time>
      </trkpt>
      <trkpt lat="44.75659" lon="1.36383">
        <ele>183.00621032715</ele>
        <time>2011-12-25T09:28:35Z</time>
      </trkpt>
      <trkpt lat="44.75647" lon="1.3639">
        <ele>182.15995788574</ele>
        <time>2011-12-25T09:28:40Z</time>
      </trkpt>
      <trkpt lat="44.75636" lon="1.36397">
        <ele>181.57066345215</ele>
        <time>2011-12-25T09:28:45Z</time>
      </trkpt>
      <trkpt lat="44.75622" lon="1.36414">
        <ele>181.22637939453</ele>
        <time>2011-12-25T09:28:52Z</time>
      </trkpt>
      <trkpt lat="44.7562" lon="1.36417">
        <ele>181.19862365723</ele>
        <time>2011-12-25T09:28:53Z</time>
      </trkpt>
      <trkpt lat="44.75613" lon="1.36427">
        <ele>181.07136535644</ele>
        <time>2011-12-25T09:28:57Z</time>
      </trkpt>
      <trkpt lat="44.75601" lon="1.36448">
        <ele>181.26065063477</ele>
        <time>2011-12-25T09:29:04Z</time>
      </trkpt>
      <trkpt lat="44.75594" lon="1.36463">
        <ele>181.58702087402</ele>
        <time>2011-12-25T09:29:09Z</time>
      </trkpt>
      <trkpt lat="44.75587" lon="1.3648">
        <ele>182.14736938477</ele>
        <time>2011-12-25T09:29:14Z</time>
      </trkpt>
      <trkpt lat="44.75581" lon="1.36499">
        <ele>182.38426208496</ele>
        <time>2011-12-25T09:29:20Z</time>
      </trkpt>
      <trkpt lat="44.75577" lon="1.36514">
        <ele>181.60673522949</ele>
        <time>2011-12-25T09:29:25Z</time>
      </trkpt>
      <trkpt lat="44.75572" lon="1.36531">
        <ele>180.66493225098</ele>
        <time>2011-12-25T09:29:31Z</time>
      </trkpt>
      <trkpt lat="44.75565" lon="1.3655">
        <ele>179.41206359863</ele>
        <time>2011-12-25T09:29:36Z</time>
      </trkpt>
      <trkpt lat="44.75559" lon="1.36567">
        <ele>178.17192077637</ele>
        <time>2011-12-25T09:29:41Z</time>
      </trkpt>
      <trkpt lat="44.75556" lon="1.36577">
        <ele>177.62519836426</ele>
        <time>2011-12-25T09:29:44Z</time>
      </trkpt>
      <trkpt lat="44.75554" lon="1.36584">
        <ele>177.31776428223</ele>
        <time>2011-12-25T09:29:46Z</time>
      </trkpt>
      <trkpt lat="44.75542" lon="1.36612">
        <ele>175.84956359863</ele>
        <time>2011-12-25T09:29:52Z</time>
      </trkpt>
      <trkpt lat="44.75536" lon="1.36637">
        <ele>175.75032043457</ele>
        <time>2011-12-25T09:29:59Z</time>
      </trkpt>
      <trkpt lat="44.75534" lon="1.36653">
        <ele>176.30241394043</ele>
        <time>2011-12-25T09:30:04Z</time>
      </trkpt>
      <trkpt lat="44.75532" lon="1.36662">
        <ele>176.41441345215</ele>
        <time>2011-12-25T09:30:07Z</time>
      </trkpt>
      <trkpt lat="44.75525" lon="1.36673">
        <ele>176.18045043945</ele>
        <time>2011-12-25T09:30:11Z</time>
      </trkpt>
      <trkpt lat="44.75515" lon="1.36672">
        <ele>174.69665527344</ele>
        <time>2011-12-25T09:30:16Z</time>
      </trkpt>
      <trkpt lat="44.75504" lon="1.36667">
        <ele>172.56979370117</ele>
        <time>2011-12-25T09:30:21Z</time>
      </trkpt>
      <trkpt lat="44.75502" lon="1.36666">
        <ele>172.22756958008</ele>
        <time>2011-12-25T09:30:22Z</time>
      </trkpt>
      <trkpt lat="44.75491" lon="1.36675">
        <ele>170.60540771484</ele>
        <time>2011-12-25T09:30:28Z</time>
      </trkpt>
      <trkpt lat="44.75482" lon="1.36684">
        <ele>169.10643005371</ele>
        <time>2011-12-25T09:30:33Z</time>
      </trkpt>
      <trkpt lat="44.75474" lon="1.36692">
        <ele>167.88159179688</ele>
        <time>2011-12-25T09:30:37Z</time>
      </trkpt>
      <trkpt lat="44.75465" lon="1.36704">
        <ele>166.97146606445</ele>
        <time>2011-12-25T09:30:43Z</time>
      </trkpt>
      <trkpt lat="44.75456" lon="1.36714">
        <ele>165.74731445312</ele>
        <time>2011-12-25T09:30:48Z</time>
      </trkpt>
      <trkpt lat="44.75446" lon="1.36729">
        <ele>165.0451965332</ele>
        <time>2011-12-25T09:30:53Z</time>
      </trkpt>
      <trkpt lat="44.75445" lon="1.36731">
        <ele>164.94218444824</ele>
        <time>2011-12-25T09:30:54Z</time>
      </trkpt>
      <trkpt lat="44.75436" lon="1.36744">
        <ele>164.1022644043</ele>
        <time>2011-12-25T09:31:00Z</time>
      </trkpt>
      <trkpt lat="44.75428" lon="1.36755">
        <ele>163.42587280273</ele>
        <time>2011-12-25T09:31:05Z</time>
      </trkpt>
      <trkpt lat="44.75425" lon="1.36762">
        <ele>163.36271667481</ele>
        <time>2011-12-25T09:31:07Z</time>
      </trkpt>
      <trkpt lat="44.75411" lon="1.36779">
        <ele>162.37879943848</ele>
        <time>2011-12-25T09:31:13Z</time>
      </trkpt>
      <trkpt lat="44.75409" lon="1.36781">
        <ele>162.26243591309</ele>
        <time>2011-12-25T09:31:14Z</time>
      </trkpt>
      <trkpt lat="44.75398" lon="1.36796">
        <ele>161.55824279785</ele>
        <time>2011-12-25T09:31:20Z</time>
      </trkpt>
      <trkpt lat="44.75387" lon="1.36814">
        <ele>160.79106140137</ele>
        <time>2011-12-25T09:31:26Z</time>
      </trkpt>
      <trkpt lat="44.75381" lon="1.36829">
        <ele>160.763671875</ele>
        <time>2011-12-25T09:31:31Z</time>
      </trkpt>
      <trkpt lat="44.75375" lon="1.36845">
        <ele>160.42640686035</ele>
        <time>2011-12-25T09:31:36Z</time>
      </trkpt>
      <trkpt lat="44.75363" lon="1.36866">
        <ele>159.46098327637</ele>
        <time>2011-12-25T09:31:42Z</time>
      </trkpt>
      <trkpt lat="44.75352" lon="1.3688">
        <ele>158.1484375</ele>
        <time>2011-12-25T09:31:47Z</time>
      </trkpt>
      <trkpt lat="44.75343" lon="1.3689">
        <ele>156.69148254394</ele>
        <time>2011-12-25T09:31:52Z</time>
      </trkpt>
      <trkpt lat="44.75331" lon="1.36902">
        <ele>155.50178527832</ele>
        <time>2011-12-25T09:31:57Z</time>
      </trkpt>
      <trkpt lat="44.75325" lon="1.36906">
        <ele>155.59053039551</ele>
        <time>2011-12-25T09:32:01Z</time>
      </trkpt>
      <trkpt lat="44.75312" lon="1.36915">
        <ele>155.6290435791</ele>
        <time>2011-12-25T09:32:08Z</time>
      </trkpt>
      <trkpt lat="44.75304" lon="1.36923">
        <ele>156.09603881836</ele>
        <time>2011-12-25T09:32:11Z</time>
      </trkpt>
      <trkpt lat="44.75292" lon="1.36941">
        <ele>157.03927612305</ele>
        <time>2011-12-25T09:32:17Z</time>
      </trkpt>
      <trkpt lat="44.7529" lon="1.36944">
        <ele>157.10250854492</ele>
        <time>2011-12-25T09:32:18Z</time>
      </trkpt>
      <trkpt lat="44.75288" lon="1.36946">
        <ele>157.01429748535</ele>
        <time>2011-12-25T09:32:20Z</time>
      </trkpt>
      <trkpt lat="44.75295" lon="1.36934">
        <ele>156.53962707519</ele>
        <time>2011-12-25T09:32:25Z</time>
      </trkpt>
      <trkpt lat="44.75303" lon="1.36916">
        <ele>155.15643310547</ele>
        <time>2011-12-25T09:32:30Z</time>
      </trkpt>
      <trkpt lat="44.75311" lon="1.36898">
        <ele>154.55569458008</ele>
        <time>2011-12-25T09:32:35Z</time>
      </trkpt>
      <trkpt lat="44.7532" lon="1.36874">
        <ele>153.11825561523</ele>
        <time>2011-12-25T09:32:41Z</time>
      </trkpt>
      <trkpt lat="44.75329" lon="1.36858">
        <ele>151.54806518555</ele>
        <time>2011-12-25T09:32:46Z</time>
      </trkpt>
      <trkpt lat="44.75338" lon="1.3684">
        <ele>150.68946838379</ele>
        <time>2011-12-25T09:32:51Z</time>
      </trkpt>
      <trkpt lat="44.75348" lon="1.36823">
        <ele>152.21611022949</ele>
        <time>2011-12-25T09:32:57Z</time>
      </trkpt>
      <trkpt lat="44.75358" lon="1.36807">
        <ele>153.5651550293</ele>
        <time>2011-12-25T09:33:02Z</time>
      </trkpt>
      <trkpt lat="44.75365" lon="1.36795">
        <ele>154.42356872559</ele>
        <time>2011-12-25T09:33:06Z</time>
      </trkpt>
      <trkpt lat="44.75373" lon="1.36777">
        <ele>154.83306884766</ele>
        <time>2011-12-25T09:33:11Z</time>
      </trkpt>
      <trkpt lat="44.75383" lon="1.36759">
        <ele>155.16328430176</ele>
        <time>2011-12-25T09:33:17Z</time>
      </trkpt>
      <trkpt lat="44.75391" lon="1.36743">
        <ele>155.08169555664</ele>
        <time>2011-12-25T09:33:22Z</time>
      </trkpt>
      <trkpt lat="44.75397" lon="1.36724">
        <ele>154.30653381348</ele>
        <time>2011-12-25T09:33:27Z</time>
      </trkpt>
      <trkpt lat="44.75406" lon="1.36705">
        <ele>153.43351745606</ele>
        <time>2011-12-25T09:33:32Z</time>
      </trkpt>
      <trkpt lat="44.75415" lon="1.36687">
        <ele>152.33999633789</ele>
        <time>2011-12-25T09:33:37Z</time>
      </trkpt>
      <trkpt lat="44.75424" lon="1.36668">
        <ele>152.18019104004</ele>
        <time>2011-12-25T09:33:42Z</time>
      </trkpt>
      <trkpt lat="44.7543" lon="1.36653">
        <ele>152.70631408691</ele>
        <time>2011-12-25T09:33:46Z</time>
      </trkpt>
      <trkpt lat="44.75438" lon="1.36634">
        <ele>153.36380004883</ele>
        <time>2011-12-25T09:33:51Z</time>
      </trkpt>
      <trkpt lat="44.75443" lon="1.36619">
        <ele>153.82466125488</ele>
        <time>2011-12-25T09:33:55Z</time>
      </trkpt>
      <trkpt lat="44.75449" lon="1.36595">
        <ele>153.53387451172</ele>
        <time>2011-12-25T09:34:01Z</time>
      </trkpt>
      <trkpt lat="44.75452" lon="1.36571">
        <ele>152.91453552246</ele>
        <time>2011-12-25T09:34:07Z</time>
      </trkpt>
      <trkpt lat="44.75453" lon="1.36553">
        <ele>152.54270935059</ele>
        <time>2011-12-25T09:34:11Z</time>
      </trkpt>
      <trkpt lat="44.75454" lon="1.36529">
        <ele>152.03234863281</ele>
        <time>2011-12-25T09:34:17Z</time>
      </trkpt>
      <trkpt lat="44.75455" lon="1.36508">
        <ele>151.54170227051</ele>
        <time>2011-12-25T09:34:22Z</time>
      </trkpt>
      <trkpt lat="44.75455" lon="1.36484">
        <ele>151.24816894531</ele>
        <time>2011-12-25T09:34:28Z</time>
      </trkpt>
      <trkpt lat="44.75454" lon="1.36463">
        <ele>151.18594360352</ele>
        <time>2011-12-25T09:34:33Z</time>
      </trkpt>
      <trkpt lat="44.75452" lon="1.36434">
        <ele>150.89141845703</ele>
        <time>2011-12-25T09:34:40Z</time>
      </trkpt>
      <trkpt lat="44.75448" lon="1.36406">
        <ele>149.79528808594</ele>
        <time>2011-12-25T09:34:47Z</time>
      </trkpt>
      <trkpt lat="44.75442" lon="1.3638">
        <ele>148.31715393066</ele>
        <time>2011-12-25T09:34:53Z</time>
      </trkpt>
      <trkpt lat="44.75439" lon="1.36357">
        <ele>147.59245300293</ele>
        <time>2011-12-25T09:34:58Z</time>
      </trkpt>
      <trkpt lat="44.75437" lon="1.36336">
        <ele>147.10255432129</ele>
        <time>2011-12-25T09:35:03Z</time>
      </trkpt>
      <trkpt lat="44.75435" lon="1.3631">
        <ele>146.66598510742</ele>
        <time>2011-12-25T09:35:09Z</time>
      </trkpt>
      <trkpt lat="44.75433" lon="1.36289">
        <ele>146.18922424316</ele>
        <time>2011-12-25T09:35:14Z</time>
      </trkpt>
      <trkpt lat="44.75431" lon="1.36262">
        <ele>145.57118225098</ele>
        <time>2011-12-25T09:35:20Z</time>
      </trkpt>
      <trkpt lat="44.7543" lon="1.36247">
        <ele>145.34541320801</ele>
        <time>2011-12-25T09:35:24Z</time>
      </trkpt>
      <trkpt lat="44.7543" lon="1.36228">
        <ele>145.05101013184</ele>
        <time>2011-12-25T09:35:29Z</time>
      </trkpt>
      <trkpt lat="44.7543" lon="1.36207">
        <ele>144.80052185059</ele>
        <time>2011-12-25T09:35:34Z</time>
      </trkpt>
      <trkpt lat="44.7543" lon="1.36187">
        <ele>144.56063842773</ele>
        <time>2011-12-25T09:35:39Z</time>
      </trkpt>
      <trkpt lat="44.75432" lon="1.3616">
        <ele>144.52244567871</ele>
        <time>2011-12-25T09:35:46Z</time>
      </trkpt>
      <trkpt lat="44.75436" lon="1.36137">
        <ele>144.26644897461</ele>
        <time>2011-12-25T09:35:52Z</time>
      </trkpt>
      <trkpt lat="44.75442" lon="1.3611">
        <ele>144.14724731445</ele>
        <time>2011-12-25T09:35:59Z</time>
      </trkpt>
      <trkpt lat="44.75448" lon="1.36084">
        <ele>143.87922668457</ele>
        <time>2011-12-25T09:36:06Z</time>
      </trkpt>
      <trkpt lat="44.75454" lon="1.36057">
        <ele>142.29705810547</ele>
        <time>2011-12-25T09:36:13Z</time>
      </trkpt>
      <trkpt lat="44.75462" lon="1.36029">
        <ele>140.69230651856</ele>
        <time>2011-12-25T09:36:21Z</time>
      </trkpt>
      <trkpt lat="44.75471" lon="1.36002">
        <ele>139.08651733398</ele>
        <time>2011-12-25T09:36:28Z</time>
      </trkpt>
      <trkpt lat="44.75479" lon="1.35979">
        <ele>137.65895080566</ele>
        <time>2011-12-25T09:36:34Z</time>
      </trkpt>
      <trkpt lat="44.75485" lon="1.35959">
        <ele>136.36883544922</ele>
        <time>2011-12-25T09:36:39Z</time>
      </trkpt>
      <trkpt lat="44.75494" lon="1.35938">
        <ele>134.92167663574</ele>
        <time>2011-12-25T09:36:45Z</time>
      </trkpt>
      <trkpt lat="44.75503" lon="1.35919">
        <ele>133.85774230957</ele>
        <time>2011-12-25T09:36:50Z</time>
      </trkpt>
      <trkpt lat="44.75513" lon="1.35902">
        <ele>134.59400939941</ele>
        <time>2011-12-25T09:36:55Z</time>
      </trkpt>
      <trkpt lat="44.75524" lon="1.35884">
        <ele>135.41970825195</ele>
        <time>2011-12-25T09:37:01Z</time>
      </trkpt>
      <trkpt lat="44.75533" lon="1.35868">
        <ele>135.72747802734</ele>
        <time>2011-12-25T09:37:06Z</time>
      </trkpt>
      <trkpt lat="44.75541" lon="1.35852">
        <ele>135.6902923584</ele>
        <time>2011-12-25T09:37:11Z</time>
      </trkpt>
      <trkpt lat="44.7555" lon="1.35834">
        <ele>135.46633911133</ele>
        <time>2011-12-25T09:37:17Z</time>
      </trkpt>
      <trkpt lat="44.75562" lon="1.35815">
        <ele>135.95439147949</ele>
        <time>2011-12-25T09:37:23Z</time>
      </trkpt>
      <trkpt lat="44.7557" lon="1.35804">
        <ele>136.21800231934</ele>
        <time>2011-12-25T09:37:27Z</time>
      </trkpt>
      <trkpt lat="44.75583" lon="1.35785">
        <ele>136.08100891113</ele>
        <time>2011-12-25T09:37:33Z</time>
      </trkpt>
      <trkpt lat="44.75592" lon="1.35768">
        <ele>136.33784484863</ele>
        <time>2011-12-25T09:37:38Z</time>
      </trkpt>
      <trkpt lat="44.75604" lon="1.35749">
        <ele>136.69534301758</ele>
        <time>2011-12-25T09:37:44Z</time>
      </trkpt>
      <trkpt lat="44.75613" lon="1.35737">
        <ele>137.09266662598</ele>
        <time>2011-12-25T09:37:48Z</time>
      </trkpt>
      <trkpt lat="44.75625" lon="1.35715">
        <ele>136.81843566894</ele>
        <time>2011-12-25T09:37:54Z</time>
      </trkpt>
      <trkpt lat="44.75639" lon="1.35691">
        <ele>135.62817382812</ele>
        <time>2011-12-25T09:38:01Z</time>
      </trkpt>
      <trkpt lat="44.75651" lon="1.35667">
        <ele>133.68417358398</ele>
        <time>2011-12-25T09:38:08Z</time>
      </trkpt>
      <trkpt lat="44.75663" lon="1.35647">
        <ele>132.31350708008</ele>
        <time>2011-12-25T09:38:14Z</time>
      </trkpt>
      <trkpt lat="44.75675" lon="1.35628">
        <ele>131.93882751465</ele>
        <time>2011-12-25T09:38:20Z</time>
      </trkpt>
      <trkpt lat="44.75688" lon="1.35609">
        <ele>132.25526428223</ele>
        <time>2011-12-25T09:38:26Z</time>
      </trkpt>
      <trkpt lat="44.75705" lon="1.35588">
        <ele>132.99984741211</ele>
        <time>2011-12-25T09:38:33Z</time>
      </trkpt>
      <trkpt lat="44.7572" lon="1.35571">
        <ele>133.58197021484</ele>
        <time>2011-12-25T09:38:39Z</time>
      </trkpt>
      <trkpt lat="44.75736" lon="1.35556">
        <ele>133.90194702148</ele>
        <time>2011-12-25T09:38:45Z</time>
      </trkpt>
      <trkpt lat="44.75748" lon="1.35538">
        <ele>132.89552307129</ele>
        <time>2011-12-25T09:38:50Z</time>
      </trkpt>
      <trkpt lat="44.75758" lon="1.3552">
        <ele>131.12966918945</ele>
        <time>2011-12-25T09:38:55Z</time>
      </trkpt>
      <trkpt lat="44.75768" lon="1.3551">
        <ele>130.18934631348</ele>
        <time>2011-12-25T09:38:59Z</time>
      </trkpt>
      <trkpt lat="44.75782" lon="1.35498">
        <ele>129.46891784668</ele>
        <time>2011-12-25T09:39:04Z</time>
      </trkpt>
      <trkpt lat="44.75795" lon="1.35487">
        <ele>129.59060668945</ele>
        <time>2011-12-25T09:39:09Z</time>
      </trkpt>
      <trkpt lat="44.75808" lon="1.35475">
        <ele>129.69073486328</ele>
        <time>2011-12-25T09:39:14Z</time>
      </trkpt>
      <trkpt lat="44.75825" lon="1.35461">
        <ele>129.78526306152</ele>
        <time>2011-12-25T09:39:20Z</time>
      </trkpt>
      <trkpt lat="44.75843" lon="1.35443">
        <ele>129.46495056152</ele>
        <time>2011-12-25T09:39:27Z</time>
      </trkpt>
      <trkpt lat="44.75856" lon="1.35425">
        <ele>128.71496582031</ele>
        <time>2011-12-25T09:39:33Z</time>
      </trkpt>
      <trkpt lat="44.75872" lon="1.35408">
        <ele>128.20719909668</ele>
        <time>2011-12-25T09:39:39Z</time>
      </trkpt>
      <trkpt lat="44.75893" lon="1.35391">
        <ele>128.01582336426</ele>
        <time>2011-12-25T09:39:46Z</time>
      </trkpt>
      <trkpt lat="44.75906" lon="1.3538">
        <ele>127.93718719482</ele>
        <time>2011-12-25T09:39:50Z</time>
      </trkpt>
      <trkpt lat="44.75923" lon="1.35365">
        <ele>128.33076477051</ele>
        <time>2011-12-25T09:39:55Z</time>
      </trkpt>
      <trkpt lat="44.75938" lon="1.35353">
        <ele>129.14793395996</ele>
        <time>2011-12-25T09:40:00Z</time>
      </trkpt>
      <trkpt lat="44.75953" lon="1.3534">
        <ele>129.59928894043</ele>
        <time>2011-12-25T09:40:05Z</time>
      </trkpt>
      <trkpt lat="44.75971" lon="1.35325">
        <ele>129.66239929199</ele>
        <time>2011-12-25T09:40:11Z</time>
      </trkpt>
      <trkpt lat="44.75986" lon="1.35312">
        <ele>129.48802185059</ele>
        <time>2011-12-25T09:40:16Z</time>
      </trkpt>
      <trkpt lat="44.76006" lon="1.35288">
        <ele>129.22453308106</ele>
        <time>2011-12-25T09:40:23Z</time>
      </trkpt>
      <trkpt lat="44.76019" lon="1.35267">
        <ele>129.66004943848</ele>
        <time>2011-12-25T09:40:28Z</time>
      </trkpt>
      <trkpt lat="44.76028" lon="1.35247">
        <ele>129.44488525391</ele>
        <time>2011-12-25T09:40:32Z</time>
      </trkpt>
      <trkpt lat="44.76036" lon="1.35228">
        <ele>129.47640991211</ele>
        <time>2011-12-25T09:40:36Z</time>
      </trkpt>
      <trkpt lat="44.76045" lon="1.35211">
        <ele>129.70359802246</ele>
        <time>2011-12-25T09:40:40Z</time>
      </trkpt>
      <trkpt lat="44.76055" lon="1.35187">
        <ele>129.46417236328</ele>
        <time>2011-12-25T09:40:45Z</time>
      </trkpt>
      <trkpt lat="44.76063" lon="1.35163">
        <ele>128.81044006348</ele>
        <time>2011-12-25T09:40:50Z</time>
      </trkpt>
      <trkpt lat="44.76073" lon="1.35138">
        <ele>127.64552307129</ele>
        <time>2011-12-25T09:40:55Z</time>
      </trkpt>
      <trkpt lat="44.76084" lon="1.35115">
        <ele>126.46589660644</ele>
        <time>2011-12-25T09:41:00Z</time>
      </trkpt>
      <trkpt lat="44.76086" lon="1.3511">
        <ele>126.15790557861</ele>
        <time>2011-12-25T09:41:01Z</time>
      </trkpt>
      <trkpt lat="44.76091" lon="1.35093">
        <ele>124.97244262695</ele>
        <time>2011-12-25T09:41:04Z</time>
      </trkpt>
      <trkpt lat="44.76096" lon="1.35071">
        <ele>124.04315185547</ele>
        <time>2011-12-25T09:41:08Z</time>
      </trkpt>
      <trkpt lat="44.76091" lon="1.35043">
        <ele>122.30134582519</ele>
        <time>2011-12-25T09:41:13Z</time>
      </trkpt>
      <trkpt lat="44.76082" lon="1.35035">
        <ele>121.24060058594</ele>
        <time>2011-12-25T09:41:15Z</time>
      </trkpt>
      <trkpt lat="44.76071" lon="1.35025">
        <ele>120.56944274902</ele>
        <time>2011-12-25T09:41:18Z</time>
      </trkpt>
      <trkpt lat="44.76057" lon="1.35011">
        <ele>119.93027496338</ele>
        <time>2011-12-25T09:41:22Z</time>
      </trkpt>
      <trkpt lat="44.76052" lon="1.35003">
        <ele>119.67613983154</ele>
        <time>2011-12-25T09:41:24Z</time>
      </trkpt>
      <trkpt lat="44.76044" lon="1.34991">
        <ele>119.46546173096</ele>
        <time>2011-12-25T09:41:27Z</time>
      </trkpt>
      <trkpt lat="44.76022" lon="1.34959">
        <ele>119.13066101074</ele>
        <time>2011-12-25T09:41:35Z</time>
      </trkpt>
      <trkpt lat="44.76007" lon="1.3494">
        <ele>119.02339172363</ele>
        <time>2011-12-25T09:41:40Z</time>
      </trkpt>
      <trkpt lat="44.75994" lon="1.3492">
        <ele>119.19543457031</ele>
        <time>2011-12-25T09:41:45Z</time>
      </trkpt>
      <trkpt lat="44.75984" lon="1.349">
        <ele>119.70065307617</ele>
        <time>2011-12-25T09:41:51Z</time>
      </trkpt>
      <trkpt lat="44.75975" lon="1.34886">
        <ele>120.23065185547</ele>
        <time>2011-12-25T09:41:56Z</time>
      </trkpt>
      <trkpt lat="44.75961" lon="1.34871">
        <ele>121.2039642334</ele>
        <time>2011-12-25T09:42:03Z</time>
      </trkpt>
      <trkpt lat="44.75946" lon="1.3487">
        <ele>122.01052093506</ele>
        <time>2011-12-25T09:42:09Z</time>
      </trkpt>
      <trkpt lat="44.75935" lon="1.34881">
        <ele>122.34255218506</ele>
        <time>2011-12-25T09:42:15Z</time>
      </trkpt>
      <trkpt lat="44.75927" lon="1.3489">
        <ele>122.45615386963</ele>
        <time>2011-12-25T09:42:20Z</time>
      </trkpt>
      <trkpt lat="44.75919" lon="1.34903">
        <ele>122.4268951416</ele>
        <time>2011-12-25T09:42:25Z</time>
      </trkpt>
      <trkpt lat="44.75909" lon="1.34914">
        <ele>122.53413391113</ele>
        <time>2011-12-25T09:42:31Z</time>
      </trkpt>
      <trkpt lat="44.75903" lon="1.34922">
        <ele>122.75062561035</ele>
        <time>2011-12-25T09:42:36Z</time>
      </trkpt>
      <trkpt lat="44.75893" lon="1.34932">
        <ele>123.06868743897</ele>
        <time>2011-12-25T09:42:41Z</time>
      </trkpt>
      <trkpt lat="44.75885" lon="1.34937">
        <ele>123.34928131103</ele>
        <time>2011-12-25T09:42:46Z</time>
      </trkpt>
      <trkpt lat="44.75874" lon="1.34945">
        <ele>123.71597290039</ele>
        <time>2011-12-25T09:42:52Z</time>
      </trkpt>
      <trkpt lat="44.75863" lon="1.3495">
        <ele>124.02900695801</ele>
        <time>2011-12-25T09:42:57Z</time>
      </trkpt>
      <trkpt lat="44.7585" lon="1.34958">
        <ele>124.30577087402</ele>
        <time>2011-12-25T09:43:03Z</time>
      </trkpt>
      <trkpt lat="44.75838" lon="1.34964">
        <ele>124.52258300781</ele>
        <time>2011-12-25T09:43:08Z</time>
      </trkpt>
      <trkpt lat="44.75827" lon="1.3497">
        <ele>124.47858428955</ele>
        <time>2011-12-25T09:43:13Z</time>
      </trkpt>
      <trkpt lat="44.7582" lon="1.34971">
        <ele>124.49714660644</ele>
        <time>2011-12-25T09:43:16Z</time>
      </trkpt>
      <trkpt lat="44.75809" lon="1.34975">
        <ele>124.38671875</ele>
        <time>2011-12-25T09:43:21Z</time>
      </trkpt>
      <trkpt lat="44.75792" lon="1.34982">
        <ele>124.07280731201</ele>
        <time>2011-12-25T09:43:28Z</time>
      </trkpt>
      <trkpt lat="44.7578" lon="1.34986">
        <ele>123.86125946045</ele>
        <time>2011-12-25T09:43:33Z</time>
      </trkpt>
      <trkpt lat="44.75771" lon="1.34993">
        <ele>123.4826965332</ele>
        <time>2011-12-25T09:43:37Z</time>
      </trkpt>
      <trkpt lat="44.7576" lon="1.34994">
        <ele>123.44569396973</ele>
        <time>2011-12-25T09:43:42Z</time>
      </trkpt>
      <trkpt lat="44.75745" lon="1.34994">
        <ele>123.59467315674</ele>
        <time>2011-12-25T09:43:48Z</time>
      </trkpt>
      <trkpt lat="44.75728" lon="1.35001">
        <ele>123.75243377685</ele>
        <time>2011-12-25T09:43:52Z</time>
      </trkpt>
      <trkpt lat="44.75711" lon="1.35012">
        <ele>124.06271362305</ele>
        <time>2011-12-25T09:43:55Z</time>
      </trkpt>
      <trkpt lat="44.75682" lon="1.35029">
        <ele>124.24172210693</ele>
        <time>2011-12-25T09:44:00Z</time>
      </trkpt>
      <trkpt lat="44.75666" lon="1.35039">
        <ele>124.14961242676</ele>
        <time>2011-12-25T09:44:03Z</time>
      </trkpt>
      <trkpt lat="44.75657" lon="1.35046">
        <ele>124.44292449951</ele>
        <time>2011-12-25T09:44:05Z</time>
      </trkpt>
      <trkpt lat="44.75645" lon="1.35059">
        <ele>124.32794952393</ele>
        <time>2011-12-25T09:44:09Z</time>
      </trkpt>
      <trkpt lat="44.75648" lon="1.35067">
        <ele>123.69341278076</ele>
        <time>2011-12-25T09:44:12Z</time>
      </trkpt>
      <trkpt lat="44.75652" lon="1.35073">
        <ele>123.11126708984</ele>
        <time>2011-12-25T09:44:15Z</time>
      </trkpt>
      <trkpt lat="44.75664" lon="1.35087">
        <ele>122.393699646</ele>
        <time>2011-12-25T09:44:22Z</time>
      </trkpt>
      <trkpt lat="44.75675" lon="1.35098">
        <ele>123.07948303223</ele>
        <time>2011-12-25T09:44:28Z</time>
      </trkpt>
      <trkpt lat="44.75686" lon="1.35109">
        <ele>123.83479309082</ele>
        <time>2011-12-25T09:44:34Z</time>
      </trkpt>
      <trkpt lat="44.75692" lon="1.3512">
        <ele>124.67422485352</ele>
        <time>2011-12-25T09:44:39Z</time>
      </trkpt>
    </trkseg>
  </trk>
</gpx>